UAE330 OMDB-RPLL
Flight info
| Callsign | UAE330 |
|---|---|
| Flight time | 7h 53m |
| Altitude | 35000 |
| Route | IVURO M428 MUNGA A777 VAXIM L301 RASKI L639 BPL A791 CEA/N0488F370 B465 CTG A599 LINSO/K0900S1130 A599 POU B330 TAMOT/N0483F370 B330 BIGEX DCT POVAM DCT NOPER V642 NOMAN A461 AVMUP W16 TADEL |
| Aircraft | B77W/H-SDE1E2E3FGHIJ2J3J4J5M1RWXY/LB1D1 |
Departure
| Time | 2026-04-21 12:31 |
|---|---|
| Airport | Dubai International Airport (OMDB) |
Arrival
| Time | 2026-04-21 20:24 |
|---|---|
| Airport | Ninoy Aquino International Airport (RPLL) |
| Time | Latitude | Longitude | Altitude | Speed | Heading |
|---|---|---|---|---|---|
| 2026-04-21 12:01 | 25.24111 | 55.37399 | 76 ft | 0 kts | 32° |
| 2026-04-21 12:15 | 25.24110 | 55.37399 | 76 ft | 0 kts | 32° |
| 2026-04-21 12:19 | 25.24095 | 55.37388 | 76 ft | 2 kts | 32° |
| 2026-04-21 12:19 | 25.24082 | 55.37380 | 76 ft | 2 kts | 32° |
| 2026-04-21 12:19 | 25.24069 | 55.37371 | 76 ft | 2 kts | 32° |
| 2026-04-21 12:19 | 25.24057 | 55.37361 | 76 ft | 2 kts | 50° |
| 2026-04-21 12:20 | 25.24050 | 55.37347 | 76 ft | 2 kts | 74° |
| 2026-04-21 12:20 | 25.24047 | 55.37331 | 76 ft | 2 kts | 94° |
| 2026-04-21 12:20 | 25.24051 | 55.37314 | 76 ft | 2 kts | 115° |
| 2026-04-21 12:20 | 25.24054 | 55.37307 | 76 ft | 1 kts | 122° |
| 2026-04-21 12:21 | 25.24055 | 55.37306 | 76 ft | 0 kts | 122° |
| 2026-04-21 12:23 | 25.24055 | 55.37307 | 76 ft | 0 kts | 122° |
| 2026-04-21 12:23 | 25.24043 | 55.37326 | 76 ft | 5 kts | 121° |
| 2026-04-21 12:24 | 25.24016 | 55.37378 | 76 ft | 9 kts | 120° |
| 2026-04-21 12:24 | 25.23981 | 55.37457 | 76 ft | 13 kts | 106° |
| 2026-04-21 12:24 | 25.23997 | 55.37564 | 76 ft | 16 kts | 56° |
| 2026-04-21 12:24 | 25.24089 | 55.37650 | 76 ft | 18 kts | 32° |
| 2026-04-21 12:25 | 25.24205 | 55.37729 | 76 ft | 20 kts | 31° |
| 2026-04-21 12:25 | 25.24338 | 55.37762 | 76 ft | 21 kts | 322° |
| 2026-04-21 12:25 | 25.24425 | 55.37620 | 76 ft | 23 kts | 301° |
| 2026-04-21 12:25 | 25.24513 | 55.37464 | 76 ft | 25 kts | 302° |
| 2026-04-21 12:26 | 25.24608 | 55.37291 | 76 ft | 27 kts | 301° |
| 2026-04-21 12:26 | 25.24711 | 55.37108 | 76 ft | 28 kts | 302° |
| 2026-04-21 12:26 | 25.24817 | 55.36913 | 76 ft | 30 kts | 298° |
| 2026-04-21 12:26 | 25.24886 | 55.36689 | 76 ft | 31 kts | 292° |
| 2026-04-21 12:27 | 25.24994 | 55.36478 | 75 ft | 32 kts | 301° |
| 2026-04-21 12:27 | 25.25113 | 55.36262 | 76 ft | 33 kts | 301° |
| 2026-04-21 12:27 | 25.25226 | 55.36060 | 75 ft | 27 kts | 302° |
| 2026-04-21 12:27 | 25.25300 | 55.35925 | 75 ft | 20 kts | 302° |
| 2026-04-21 12:28 | 25.25377 | 55.35786 | 75 ft | 20 kts | 301° |
| 2026-04-21 12:28 | 25.25482 | 55.35756 | 75 ft | 9 kts | 29° |
| 2026-04-21 12:28 | 25.25494 | 55.35764 | 75 ft | 0 kts | 30° |
| 2026-04-21 12:29 | 25.25500 | 55.35768 | 75 ft | 2 kts | 30° |
| 2026-04-21 12:29 | 25.25533 | 55.35789 | 75 ft | 9 kts | 30° |
| 2026-04-21 12:30 | 25.25590 | 55.35858 | 75 ft | 12 kts | 90° |
| 2026-04-21 12:30 | 25.25555 | 55.35945 | 75 ft | 16 kts | 120° |
| 2026-04-21 12:30 | 25.25432 | 55.36166 | 75 ft | 68 kts | 120° |
| 2026-04-21 12:30 | 25.25031 | 55.36891 | 76 ft | 150 kts | 121° |
| 2026-04-21 12:31 | 25.24350 | 55.38109 | 196 ft | 212 kts | 119° |
| 2026-04-21 12:31 | 25.23566 | 55.39540 | 1037 ft | 225 kts | 119° |
| 2026-04-21 12:31 | 25.22771 | 55.40992 | 1792 ft | 229 kts | 119° |
| 2026-04-21 12:31 | 25.21907 | 55.42549 | 2312 ft | 242 kts | 120° |
| 2026-04-21 12:32 | 25.21507 | 55.43262 | 2601 ft | 244 kts | 120° |
| 2026-04-21 12:33 | 25.21462 | 55.43342 | 2637 ft | 244 kts | 120° |
| 2026-04-21 12:33 | 25.20582 | 55.44935 | 3352 ft | 246 kts | 115° |
| 2026-04-21 12:33 | 25.20127 | 55.46761 | 3985 ft | 248 kts | 93° |
| 2026-04-21 12:33 | 25.20039 | 55.48632 | 4728 ft | 248 kts | 90° |
| 2026-04-21 12:34 | 25.19992 | 55.50547 | 5433 ft | 251 kts | 90° |
| 2026-04-21 12:34 | 25.19943 | 55.52473 | 6121 ft | 255 kts | 90° |
| 2026-04-21 12:34 | 25.19890 | 55.54411 | 6765 ft | 263 kts | 91° |
| 2026-04-21 12:34 | 25.19833 | 55.56485 | 7271 ft | 277 kts | 91° |
| 2026-04-21 12:35 | 25.19774 | 55.58639 | 7980 ft | 281 kts | 90° |
| 2026-04-21 12:35 | 25.20046 | 55.60759 | 8731 ft | 282 kts | 66° |
| 2026-04-21 12:35 | 25.21139 | 55.62613 | 9264 ft | 291 kts | 44° |
| 2026-04-21 12:35 | 25.22646 | 55.64139 | 9742 ft | 303 kts | 38° |
| 2026-04-21 12:36 | 25.24301 | 55.65672 | 10369 ft | 313 kts | 38° |
| 2026-04-21 12:36 | 25.26016 | 55.67265 | 10789 ft | 332 kts | 39° |
| 2026-04-21 12:36 | 25.27825 | 55.68958 | 11211 ft | 349 kts | 39° |
| 2026-04-21 12:36 | 25.29743 | 55.70761 | 11650 ft | 365 kts | 39° |
| 2026-04-21 12:37 | 25.31724 | 55.72646 | 12087 ft | 381 kts | 42° |
| 2026-04-21 12:37 | 25.33528 | 55.74876 | 12520 ft | 397 kts | 53° |
| 2026-04-21 12:37 | 25.34965 | 55.77544 | 13041 ft | 409 kts | 65° |
| 2026-04-21 12:37 | 25.35920 | 55.80524 | 13733 ft | 414 kts | 77° |
| 2026-04-21 12:38 | 25.36384 | 55.83672 | 14421 ft | 419 kts | 84° |
| 2026-04-21 12:38 | 25.36702 | 55.86911 | 15096 ft | 425 kts | 84° |
| 2026-04-21 12:38 | 25.37018 | 55.90155 | 15741 ft | 432 kts | 84° |
| 2026-04-21 12:38 | 25.37153 | 55.93460 | 16343 ft | 438 kts | 93° |
| 2026-04-21 12:39 | 25.36768 | 55.96835 | 16954 ft | 443 kts | 103° |
| 2026-04-21 12:39 | 25.36086 | 56.00137 | 17606 ft | 446 kts | 104° |
| 2026-04-21 12:39 | 25.35366 | 56.03466 | 18268 ft | 450 kts | 104° |
| 2026-04-21 12:39 | 25.34632 | 56.06858 | 18966 ft | 453 kts | 104° |
| 2026-04-21 12:40 | 25.33902 | 56.10234 | 19555 ft | 458 kts | 104° |
| 2026-04-21 12:40 | 25.33162 | 56.13659 | 20157 ft | 463 kts | 104° |
| 2026-04-21 12:40 | 25.32240 | 56.17090 | 20783 ft | 465 kts | 111° |
| 2026-04-21 12:40 | 25.31148 | 56.20448 | 21400 ft | 468 kts | 111° |
| 2026-04-21 12:41 | 25.30032 | 56.23834 | 22009 ft | 472 kts | 112° |
| 2026-04-21 12:41 | 25.28905 | 56.27253 | 22583 ft | 475 kts | 111° |
| 2026-04-21 12:41 | 25.27767 | 56.30702 | 23120 ft | 480 kts | 111° |
| 2026-04-21 12:41 | 25.26618 | 56.34187 | 23645 ft | 484 kts | 112° |
| 2026-04-21 12:42 | 25.25465 | 56.37682 | 24165 ft | 488 kts | 111° |
| 2026-04-21 12:42 | 25.24299 | 56.41213 | 24706 ft | 491 kts | 112° |
| 2026-04-21 12:42 | 25.23141 | 56.44715 | 25246 ft | 494 kts | 112° |
| 2026-04-21 12:42 | 25.21952 | 56.48307 | 25760 ft | 497 kts | 111° |
| 2026-04-21 12:43 | 25.20761 | 56.51903 | 26264 ft | 501 kts | 111° |
| 2026-04-21 12:43 | 25.19572 | 56.55490 | 26776 ft | 504 kts | 111° |
| 2026-04-21 12:43 | 25.18353 | 56.59151 | 27278 ft | 508 kts | 112° |
| 2026-04-21 12:43 | 25.17022 | 56.62752 | 27769 ft | 511 kts | 114° |
| 2026-04-21 12:44 | 25.15634 | 56.66397 | 28256 ft | 514 kts | 114° |
| 2026-04-21 12:44 | 25.14244 | 56.70043 | 28659 ft | 520 kts | 114° |
| 2026-04-21 12:44 | 25.12838 | 56.73743 | 29080 ft | 524 kts | 114° |
| 2026-04-21 12:44 | 25.11432 | 56.77445 | 29738 ft | 523 kts | 114° |
| 2026-04-21 12:45 | 25.10042 | 56.81111 | 30609 ft | 518 kts | 114° |
| 2026-04-21 12:45 | 25.08666 | 56.84739 | 31421 ft | 513 kts | 114° |
| 2026-04-21 12:45 | 25.07265 | 56.88429 | 32029 ft | 512 kts | 115° |
| 2026-04-21 12:45 | 25.05897 | 56.92033 | 32529 ft | 513 kts | 114° |
| 2026-04-21 12:46 | 25.04527 | 56.95639 | 33103 ft | 511 kts | 114° |
| 2026-04-21 12:46 | 25.03162 | 56.99234 | 33706 ft | 508 kts | 115° |
| 2026-04-21 12:46 | 25.01798 | 57.02819 | 34114 ft | 510 kts | 114° |
| 2026-04-21 12:46 | 25.00428 | 57.06421 | 34407 ft | 513 kts | 114° |
| 2026-04-21 12:47 | 24.99026 | 57.10103 | 34691 ft | 516 kts | 114° |
| 2026-04-21 12:47 | 24.96169 | 57.17596 | 34767 ft | 518 kts | 114° |
| 2026-04-21 12:48 | 24.93379 | 57.24905 | 34769 ft | 517 kts | 113° |
| 2026-04-21 12:48 | 24.90574 | 57.32240 | 34763 ft | 515 kts | 113° |
| 2026-04-21 12:49 | 24.87716 | 57.39701 | 34767 ft | 518 kts | 113° |
| 2026-04-21 12:49 | 24.84922 | 57.46982 | 34765 ft | 515 kts | 113° |
| 2026-04-21 12:50 | 24.82120 | 57.54269 | 34771 ft | 518 kts | 112° |
| 2026-04-21 12:50 | 24.79314 | 57.61557 | 34772 ft | 517 kts | 112° |
| 2026-04-21 12:51 | 24.76481 | 57.68901 | 34760 ft | 515 kts | 113° |
| 2026-04-21 12:51 | 24.73682 | 57.76147 | 34759 ft | 516 kts | 113° |
| 2026-04-21 12:52 | 24.71151 | 57.83476 | 34765 ft | 515 kts | 108° |
| 2026-04-21 12:52 | 24.68875 | 57.90949 | 34766 ft | 515 kts | 108° |
| 2026-04-21 12:53 | 24.66576 | 57.98405 | 34763 ft | 515 kts | 108° |
| 2026-04-21 12:53 | 24.64257 | 58.05870 | 34766 ft | 516 kts | 108° |
| 2026-04-21 12:54 | 24.61933 | 58.13305 | 34765 ft | 513 kts | 108° |
| 2026-04-21 12:54 | 24.59608 | 58.20713 | 34772 ft | 515 kts | 108° |
| 2026-04-21 12:55 | 24.57269 | 58.28145 | 34771 ft | 514 kts | 108° |
| 2026-04-21 12:55 | 24.54932 | 58.35553 | 34778 ft | 515 kts | 108° |
| 2026-04-21 12:56 | 24.52580 | 58.42992 | 34774 ft | 512 kts | 108° |
| 2026-04-21 12:56 | 24.50215 | 58.50456 | 34782 ft | 513 kts | 108° |
| 2026-04-21 12:57 | 24.47880 | 58.57808 | 34780 ft | 511 kts | 108° |
| 2026-04-21 12:57 | 24.45528 | 58.65202 | 34775 ft | 510 kts | 108° |
| 2026-04-21 12:58 | 24.43190 | 58.72537 | 34768 ft | 512 kts | 108° |
| 2026-04-21 12:58 | 24.40414 | 58.79760 | 34769 ft | 512 kts | 115° |
| 2026-04-21 12:59 | 24.37290 | 58.86783 | 34768 ft | 513 kts | 115° |
| 2026-04-21 12:59 | 24.34159 | 58.93806 | 34767 ft | 511 kts | 115° |
| 2026-04-21 13:00 | 24.31041 | 59.00791 | 34769 ft | 511 kts | 115° |
| 2026-04-21 13:00 | 24.27931 | 59.07755 | 34766 ft | 509 kts | 115° |
| 2026-04-21 13:01 | 24.24817 | 59.14713 | 34765 ft | 510 kts | 115° |
| 2026-04-21 13:01 | 24.21691 | 59.21692 | 34769 ft | 509 kts | 115° |
| 2026-04-21 13:02 | 24.18566 | 59.28656 | 34771 ft | 509 kts | 115° |
| 2026-04-21 13:02 | 24.13894 | 59.39049 | 34771 ft | 508 kts | 115° |
| 2026-04-21 13:03 | 24.10755 | 59.46018 | 34768 ft | 509 kts | 115° |
| 2026-04-21 13:03 | 24.07629 | 59.52950 | 34771 ft | 509 kts | 115° |
| 2026-04-21 13:04 | 24.04516 | 59.59841 | 34771 ft | 507 kts | 115° |
| 2026-04-21 13:04 | 24.01364 | 59.66810 | 34770 ft | 508 kts | 115° |
| 2026-04-21 13:05 | 23.98234 | 59.73719 | 34772 ft | 510 kts | 115° |
| 2026-04-21 13:05 | 23.95106 | 59.80615 | 34775 ft | 507 kts | 115° |
| 2026-04-21 13:06 | 23.91962 | 59.87534 | 34783 ft | 506 kts | 115° |
| 2026-04-21 13:06 | 23.88831 | 59.94416 | 34782 ft | 506 kts | 115° |
| 2026-04-21 13:07 | 23.85672 | 60.01349 | 34785 ft | 507 kts | 115° |
| 2026-04-21 13:07 | 23.82537 | 60.08219 | 34780 ft | 508 kts | 115° |
| 2026-04-21 13:08 | 23.79377 | 60.15134 | 34773 ft | 508 kts | 115° |
| 2026-04-21 13:08 | 23.76236 | 60.21997 | 34773 ft | 506 kts | 115° |
| 2026-04-21 13:09 | 23.73094 | 60.28853 | 34772 ft | 508 kts | 115° |
| 2026-04-21 13:09 | 23.69939 | 60.35726 | 34777 ft | 509 kts | 115° |
| 2026-04-21 13:10 | 23.66773 | 60.42615 | 34775 ft | 509 kts | 115° |
| 2026-04-21 13:10 | 23.63591 | 60.49526 | 34783 ft | 507 kts | 115° |
| 2026-04-21 13:11 | 23.60418 | 60.56411 | 34780 ft | 509 kts | 115° |
| 2026-04-21 13:11 | 23.57243 | 60.63287 | 34784 ft | 505 kts | 115° |
| 2026-04-21 13:12 | 23.54080 | 60.70130 | 34781 ft | 507 kts | 116° |
| 2026-04-21 13:12 | 23.50900 | 60.76998 | 34783 ft | 508 kts | 115° |
| 2026-04-21 13:13 | 23.47735 | 60.83825 | 34779 ft | 506 kts | 115° |
| 2026-04-21 13:13 | 23.44545 | 60.90696 | 34784 ft | 509 kts | 115° |
| 2026-04-21 13:14 | 23.41355 | 60.97556 | 34786 ft | 508 kts | 115° |
| 2026-04-21 13:14 | 23.38172 | 61.04390 | 34792 ft | 508 kts | 115° |
| 2026-04-21 13:15 | 23.35012 | 61.11169 | 34795 ft | 504 kts | 115° |
| 2026-04-21 13:15 | 23.32155 | 61.18141 | 34786 ft | 505 kts | 104° |
| 2026-04-21 13:16 | 23.30989 | 61.25609 | 34797 ft | 500 kts | 93° |
| 2026-04-21 13:16 | 23.30340 | 61.33116 | 34792 ft | 499 kts | 93° |
| 2026-04-21 13:17 | 23.29681 | 61.40662 | 34804 ft | 500 kts | 93° |
| 2026-04-21 13:17 | 23.29016 | 61.48175 | 34802 ft | 500 kts | 93° |
| 2026-04-21 13:18 | 23.28346 | 61.55684 | 34805 ft | 500 kts | 93° |
| 2026-04-21 13:18 | 23.27670 | 61.63194 | 34817 ft | 503 kts | 93° |
| 2026-04-21 13:19 | 23.26987 | 61.70723 | 34796 ft | 501 kts | 94° |
| 2026-04-21 13:19 | 23.26298 | 61.78276 | 34808 ft | 501 kts | 94° |
| 2026-04-21 13:20 | 23.25610 | 61.85781 | 34809 ft | 502 kts | 94° |
| 2026-04-21 13:20 | 23.24911 | 61.93367 | 34807 ft | 500 kts | 94° |
| 2026-04-21 13:21 | 23.24213 | 62.00897 | 34809 ft | 503 kts | 94° |
| 2026-04-21 13:21 | 23.23509 | 62.08460 | 34810 ft | 501 kts | 94° |
| 2026-04-21 13:22 | 23.22808 | 62.15942 | 34811 ft | 500 kts | 95° |
| 2026-04-21 13:22 | 23.22098 | 62.23473 | 34812 ft | 501 kts | 95° |
| 2026-04-21 13:23 | 23.21384 | 62.31020 | 34815 ft | 500 kts | 95° |
| 2026-04-21 13:23 | 23.20672 | 62.38504 | 34816 ft | 501 kts | 95° |
| 2026-04-21 13:24 | 23.19954 | 62.46013 | 34818 ft | 498 kts | 95° |
| 2026-04-21 13:24 | 23.19237 | 62.53481 | 34819 ft | 497 kts | 95° |
| 2026-04-21 13:25 | 23.18511 | 62.60992 | 34818 ft | 498 kts | 95° |
| 2026-04-21 13:25 | 23.17786 | 62.68462 | 34819 ft | 498 kts | 96° |
| 2026-04-21 13:26 | 23.17055 | 62.75954 | 34814 ft | 495 kts | 96° |
| 2026-04-21 13:26 | 23.16324 | 62.83414 | 34816 ft | 497 kts | 96° |
| 2026-04-21 13:27 | 23.15593 | 62.90841 | 34824 ft | 495 kts | 96° |
| 2026-04-21 13:27 | 23.14858 | 62.98266 | 34826 ft | 495 kts | 96° |
| 2026-04-21 13:28 | 23.14119 | 63.05689 | 34826 ft | 492 kts | 96° |
| 2026-04-21 13:28 | 23.13379 | 63.13091 | 34824 ft | 494 kts | 96° |
| 2026-04-21 13:29 | 23.12633 | 63.20524 | 34826 ft | 492 kts | 96° |
| 2026-04-21 13:29 | 23.11884 | 63.27944 | 34826 ft | 496 kts | 96° |
| 2026-04-21 13:30 | 23.11127 | 63.35405 | 34828 ft | 495 kts | 96° |
| 2026-04-21 13:30 | 23.10373 | 63.42816 | 34825 ft | 496 kts | 96° |
| 2026-04-21 13:31 | 23.09612 | 63.50246 | 34820 ft | 495 kts | 97° |
| 2026-04-21 13:31 | 23.08849 | 63.57664 | 34818 ft | 495 kts | 96° |
| 2026-04-21 13:32 | 23.08079 | 63.65118 | 34824 ft | 497 kts | 97° |
| 2026-04-21 13:32 | 23.07301 | 63.72614 | 34817 ft | 498 kts | 97° |
| 2026-04-21 13:33 | 23.06529 | 63.80020 | 34812 ft | 497 kts | 97° |
| 2026-04-21 13:33 | 23.05747 | 63.87497 | 34807 ft | 499 kts | 97° |
| 2026-04-21 13:34 | 23.04994 | 63.94922 | 34806 ft | 498 kts | 97° |
| 2026-04-21 13:34 | 23.04237 | 64.02380 | 34809 ft | 498 kts | 97° |
| 2026-04-21 13:35 | 23.03474 | 64.09860 | 34807 ft | 496 kts | 97° |
| 2026-04-21 13:35 | 23.02712 | 64.17290 | 34817 ft | 498 kts | 97° |
| 2026-04-21 13:36 | 23.01945 | 64.24729 | 34824 ft | 497 kts | 97° |
| 2026-04-21 13:36 | 23.01169 | 64.32219 | 34828 ft | 499 kts | 97° |
| 2026-04-21 13:37 | 23.00395 | 64.39664 | 34827 ft | 497 kts | 97° |
| 2026-04-21 13:37 | 22.99614 | 64.47131 | 34827 ft | 497 kts | 97° |
| 2026-04-21 13:38 | 22.98826 | 64.54630 | 34828 ft | 496 kts | 97° |
| 2026-04-21 13:38 | 22.98044 | 64.62044 | 34830 ft | 497 kts | 96° |
| 2026-04-21 13:39 | 22.97245 | 64.69584 | 34825 ft | 496 kts | 97° |
| 2026-04-21 13:39 | 22.96451 | 64.77032 | 34827 ft | 495 kts | 97° |
| 2026-04-21 13:40 | 22.95789 | 64.84436 | 34818 ft | 497 kts | 91° |
| 2026-04-21 13:40 | 22.95814 | 64.91929 | 34826 ft | 496 kts | 89° |
| 2026-04-21 13:41 | 22.95866 | 64.99366 | 34827 ft | 496 kts | 89° |
| 2026-04-21 13:41 | 22.95912 | 65.06866 | 34827 ft | 495 kts | 90° |
| 2026-04-21 13:42 | 22.95951 | 65.14282 | 34827 ft | 495 kts | 89° |
| 2026-04-21 13:42 | 22.95986 | 65.21764 | 34827 ft | 495 kts | 89° |
| 2026-04-21 13:43 | 22.96017 | 65.29183 | 34828 ft | 494 kts | 89° |
| 2026-04-21 13:43 | 22.96044 | 65.36603 | 34829 ft | 494 kts | 89° |
| 2026-04-21 13:44 | 22.96067 | 65.44080 | 34828 ft | 495 kts | 89° |
| 2026-04-21 13:44 | 22.96087 | 65.51517 | 34828 ft | 494 kts | 89° |
| 2026-04-21 13:45 | 22.96103 | 65.58977 | 34830 ft | 494 kts | 89° |
| 2026-04-21 13:45 | 22.96116 | 65.66440 | 34827 ft | 493 kts | 90° |
| 2026-04-21 13:46 | 22.96125 | 65.73926 | 34827 ft | 492 kts | 89° |
| 2026-04-21 13:46 | 22.96131 | 65.81380 | 34832 ft | 491 kts | 89° |
| 2026-04-21 13:47 | 22.96133 | 65.88764 | 34840 ft | 492 kts | 89° |
| 2026-04-21 13:47 | 22.96132 | 65.96184 | 34848 ft | 491 kts | 89° |
| 2026-04-21 13:48 | 22.96127 | 66.03551 | 34849 ft | 491 kts | 90° |
| 2026-04-21 13:48 | 22.96119 | 66.10953 | 34848 ft | 492 kts | 90° |
| 2026-04-21 13:49 | 22.96108 | 66.18366 | 34849 ft | 491 kts | 90° |
| 2026-04-21 13:49 | 22.96093 | 66.25767 | 34849 ft | 490 kts | 90° |
| 2026-04-21 13:50 | 22.96074 | 66.33100 | 34838 ft | 490 kts | 90° |
| 2026-04-21 13:50 | 22.96053 | 66.40482 | 34837 ft | 489 kts | 90° |
| 2026-04-21 13:51 | 22.96028 | 66.47819 | 34832 ft | 488 kts | 90° |
| 2026-04-21 13:51 | 22.95999 | 66.55200 | 34830 ft | 489 kts | 90° |
| 2026-04-21 13:52 | 22.95967 | 66.62605 | 34829 ft | 486 kts | 90° |
| 2026-04-21 13:52 | 22.95932 | 66.70023 | 34827 ft | 487 kts | 90° |
| 2026-04-21 13:53 | 22.95893 | 66.77325 | 34826 ft | 487 kts | 90° |
| 2026-04-21 13:53 | 22.95851 | 66.84650 | 34830 ft | 487 kts | 90° |
| 2026-04-21 13:54 | 22.95806 | 66.92009 | 34828 ft | 485 kts | 90° |
| 2026-04-21 13:54 | 22.95772 | 66.99362 | 34830 ft | 486 kts | 90° |
| 2026-04-21 13:55 | 22.95795 | 67.06676 | 34827 ft | 485 kts | 90° |
| 2026-04-21 13:55 | 22.95814 | 67.14098 | 34823 ft | 485 kts | 90° |
| 2026-04-21 13:56 | 22.95827 | 67.21413 | 34834 ft | 486 kts | 90° |
| 2026-04-21 13:56 | 22.95836 | 67.28770 | 34830 ft | 485 kts | 90° |
| 2026-04-21 13:57 | 22.95841 | 67.36053 | 34832 ft | 487 kts | 89° |
| 2026-04-21 13:57 | 22.95842 | 67.43374 | 34830 ft | 486 kts | 89° |
| 2026-04-21 13:58 | 22.95839 | 67.50706 | 34833 ft | 485 kts | 89° |
| 2026-04-21 13:58 | 22.95834 | 67.58028 | 34828 ft | 486 kts | 89° |
| 2026-04-21 13:59 | 22.95825 | 67.65411 | 34833 ft | 485 kts | 90° |
| 2026-04-21 13:59 | 22.95812 | 67.72782 | 34832 ft | 486 kts | 90° |
| 2026-04-21 14:00 | 22.95796 | 67.80138 | 34833 ft | 485 kts | 90° |
| 2026-04-21 14:00 | 22.95777 | 67.87474 | 34830 ft | 486 kts | 90° |
| 2026-04-21 14:01 | 22.95783 | 67.94821 | 34848 ft | 486 kts | 89° |
| 2026-04-21 14:01 | 22.95792 | 68.02129 | 34844 ft | 485 kts | 89° |
| 2026-04-21 14:02 | 22.95796 | 68.09455 | 34847 ft | 484 kts | 89° |
| 2026-04-21 14:03 | 22.95795 | 68.20441 | 34848 ft | 485 kts | 89° |
| 2026-04-21 14:03 | 22.95790 | 68.27790 | 34846 ft | 484 kts | 89° |
| 2026-04-21 14:04 | 22.95782 | 68.35137 | 34849 ft | 485 kts | 89° |
| 2026-04-21 14:04 | 22.95614 | 68.42327 | 34852 ft | 486 kts | 92° |
| 2026-04-21 14:05 | 22.95151 | 68.49721 | 34844 ft | 485 kts | 92° |
| 2026-04-21 14:05 | 22.94704 | 68.57046 | 34839 ft | 483 kts | 92° |
| 2026-04-21 14:06 | 22.94327 | 68.63328 | 34842 ft | 484 kts | 92° |
| 2026-04-21 14:06 | 22.94103 | 68.67088 | 34841 ft | 484 kts | 93° |
| 2026-04-21 14:07 | 22.93762 | 68.72817 | 34842 ft | 483 kts | 92° |
| 2026-04-21 14:07 | 22.93372 | 68.79357 | 34834 ft | 485 kts | 92° |
| 2026-04-21 14:08 | 22.92933 | 68.86698 | 34831 ft | 483 kts | 92° |
| 2026-04-21 14:08 | 22.92517 | 68.93623 | 34833 ft | 483 kts | 92° |
| 2026-04-21 14:09 | 22.92074 | 69.00944 | 34831 ft | 483 kts | 92° |
| 2026-04-21 14:09 | 22.91627 | 69.08278 | 34832 ft | 483 kts | 92° |
| 2026-04-21 14:10 | 22.91175 | 69.15655 | 34835 ft | 483 kts | 92° |
| 2026-04-21 14:10 | 22.90723 | 69.22959 | 34837 ft | 483 kts | 92° |
| 2026-04-21 14:11 | 22.90265 | 69.30312 | 34842 ft | 482 kts | 92° |
| 2026-04-21 14:11 | 22.89803 | 69.37680 | 34839 ft | 483 kts | 92° |
| 2026-04-21 14:12 | 22.89350 | 69.44848 | 34836 ft | 482 kts | 92° |
| 2026-04-21 14:12 | 22.88883 | 69.52180 | 34835 ft | 482 kts | 92° |
| 2026-04-21 14:13 | 22.88413 | 69.59525 | 34833 ft | 482 kts | 92° |
| 2026-04-21 14:13 | 22.87943 | 69.66792 | 34840 ft | 482 kts | 92° |
| 2026-04-21 14:14 | 22.87483 | 69.74179 | 34838 ft | 481 kts | 92° |
| 2026-04-21 14:14 | 22.87085 | 69.81132 | 34835 ft | 482 kts | 92° |
| 2026-04-21 14:15 | 22.86659 | 69.88509 | 34833 ft | 482 kts | 91° |
| 2026-04-21 14:15 | 22.86233 | 69.95778 | 34831 ft | 482 kts | 92° |
| 2026-04-21 14:16 | 22.85819 | 70.02794 | 34829 ft | 481 kts | 91° |
| 2026-04-21 14:16 | 22.85481 | 70.08481 | 34825 ft | 481 kts | 92° |
| 2026-04-21 14:17 | 22.84999 | 70.16508 | 34826 ft | 480 kts | 91° |
| 2026-04-21 14:17 | 22.84558 | 70.23802 | 34821 ft | 482 kts | 91° |
| 2026-04-21 14:18 | 22.84134 | 70.30771 | 34820 ft | 482 kts | 91° |
| 2026-04-21 14:18 | 22.83738 | 70.37230 | 34815 ft | 482 kts | 91° |
| 2026-04-21 14:19 | 22.83290 | 70.44481 | 34812 ft | 482 kts | 91° |
| 2026-04-21 14:19 | 22.82837 | 70.51755 | 34810 ft | 482 kts | 91° |
| 2026-04-21 14:20 | 22.82380 | 70.59042 | 34814 ft | 481 kts | 91° |
| 2026-04-21 14:20 | 22.81922 | 70.66290 | 34814 ft | 481 kts | 92° |
| 2026-04-21 14:21 | 22.81457 | 70.73616 | 34819 ft | 480 kts | 92° |
| 2026-04-21 14:21 | 22.80990 | 70.80959 | 34812 ft | 481 kts | 90° |
| 2026-04-21 14:22 | 22.81543 | 70.88178 | 34818 ft | 479 kts | 78° |
| 2026-04-21 14:22 | 22.82631 | 70.95366 | 34817 ft | 478 kts | 78° |
| 2026-04-21 14:23 | 22.83701 | 71.02460 | 34816 ft | 478 kts | 78° |
| 2026-04-21 14:23 | 22.84781 | 71.09669 | 34816 ft | 477 kts | 78° |
| 2026-04-21 14:24 | 22.85858 | 71.16889 | 34816 ft | 478 kts | 78° |
| 2026-04-21 14:24 | 22.86923 | 71.24051 | 34814 ft | 477 kts | 78° |
| 2026-04-21 14:25 | 22.87987 | 71.31242 | 34810 ft | 477 kts | 78° |
| 2026-04-21 14:25 | 22.89041 | 71.38378 | 34809 ft | 478 kts | 78° |
| 2026-04-21 14:26 | 22.90095 | 71.45544 | 34809 ft | 477 kts | 78° |
| 2026-04-21 14:26 | 22.91141 | 71.52678 | 34803 ft | 477 kts | 78° |
| 2026-04-21 14:27 | 22.92184 | 71.59821 | 34803 ft | 477 kts | 78° |
| 2026-04-21 14:27 | 22.93227 | 71.66982 | 34802 ft | 477 kts | 79° |
| 2026-04-21 14:28 | 22.94280 | 71.74229 | 34802 ft | 477 kts | 78° |
| 2026-04-21 14:28 | 22.95306 | 71.81325 | 34804 ft | 477 kts | 78° |
| 2026-04-21 14:29 | 22.96326 | 71.88398 | 34809 ft | 476 kts | 78° |
| 2026-04-21 14:29 | 22.97346 | 71.95486 | 34810 ft | 476 kts | 79° |
| 2026-04-21 14:30 | 22.98358 | 72.02550 | 34807 ft | 475 kts | 78° |
| 2026-04-21 14:30 | 22.99371 | 72.09637 | 34810 ft | 476 kts | 78° |
| 2026-04-21 14:31 | 23.00379 | 72.16720 | 34806 ft | 476 kts | 78° |
| 2026-04-21 14:31 | 23.01384 | 72.23806 | 34795 ft | 476 kts | 78° |
| 2026-04-21 14:32 | 23.02391 | 72.30923 | 34789 ft | 476 kts | 78° |
| 2026-04-21 14:32 | 23.03386 | 72.37981 | 34793 ft | 477 kts | 78° |
| 2026-04-21 14:33 | 23.04386 | 72.45098 | 34791 ft | 477 kts | 78° |
| 2026-04-21 14:33 | 23.05381 | 72.52203 | 34795 ft | 478 kts | 78° |
| 2026-04-21 14:34 | 23.06375 | 72.59325 | 34794 ft | 477 kts | 78° |
| 2026-04-21 14:34 | 23.07081 | 72.66487 | 34795 ft | 479 kts | 84° |
| 2026-04-21 14:35 | 23.07492 | 72.73798 | 34796 ft | 479 kts | 84° |
| 2026-04-21 14:35 | 23.07893 | 72.81031 | 34796 ft | 478 kts | 84° |
| 2026-04-21 14:36 | 23.08292 | 72.88238 | 34798 ft | 479 kts | 84° |
| 2026-04-21 14:36 | 23.08687 | 72.95438 | 34800 ft | 480 kts | 84° |
| 2026-04-21 14:37 | 23.09080 | 73.02656 | 34798 ft | 480 kts | 84° |
| 2026-04-21 14:37 | 23.09472 | 73.09907 | 34801 ft | 481 kts | 84° |
| 2026-04-21 14:38 | 23.09858 | 73.17110 | 34799 ft | 480 kts | 84° |
| 2026-04-21 14:38 | 23.10249 | 73.24482 | 34812 ft | 482 kts | 84° |
| 2026-04-21 14:39 | 23.10636 | 73.31820 | 34813 ft | 481 kts | 84° |
| 2026-04-21 14:39 | 23.11015 | 73.39090 | 34825 ft | 483 kts | 84° |
| 2026-04-21 14:40 | 23.11391 | 73.46347 | 34826 ft | 483 kts | 84° |
| 2026-04-21 14:40 | 23.11763 | 73.53606 | 34833 ft | 483 kts | 84° |
| 2026-04-21 14:41 | 23.12134 | 73.60898 | 34835 ft | 483 kts | 84° |
| 2026-04-21 14:41 | 23.12505 | 73.68273 | 34833 ft | 485 kts | 84° |
| 2026-04-21 14:42 | 23.12873 | 73.75654 | 34833 ft | 486 kts | 84° |
| 2026-04-21 14:42 | 23.13234 | 73.82940 | 34840 ft | 487 kts | 84° |
| 2026-04-21 14:43 | 23.13594 | 73.90304 | 34846 ft | 487 kts | 84° |
| 2026-04-21 14:43 | 23.13949 | 73.97621 | 34858 ft | 486 kts | 84° |
| 2026-04-21 14:44 | 23.14300 | 74.04937 | 34858 ft | 486 kts | 84° |
| 2026-04-21 14:44 | 23.14647 | 74.12236 | 34861 ft | 485 kts | 84° |
| 2026-04-21 14:45 | 23.14991 | 74.19535 | 34867 ft | 488 kts | 84° |
| 2026-04-21 14:45 | 23.15334 | 74.26890 | 34859 ft | 487 kts | 84° |
| 2026-04-21 14:46 | 23.15674 | 74.34248 | 34869 ft | 488 kts | 84° |
| 2026-04-21 14:46 | 23.15858 | 74.41595 | 34879 ft | 489 kts | 86° |
| 2026-04-21 14:47 | 23.15998 | 74.48952 | 34890 ft | 489 kts | 86° |
| 2026-04-21 14:47 | 23.16141 | 74.56301 | 34901 ft | 488 kts | 86° |
| 2026-04-21 14:48 | 23.16285 | 74.63678 | 34888 ft | 487 kts | 86° |
| 2026-04-21 14:48 | 23.16426 | 74.71011 | 34887 ft | 488 kts | 86° |
| 2026-04-21 14:49 | 23.16566 | 74.78426 | 34885 ft | 489 kts | 86° |
| 2026-04-21 14:49 | 23.16703 | 74.85805 | 34909 ft | 489 kts | 86° |
| 2026-04-21 14:50 | 23.16814 | 74.91946 | 34919 ft | 489 kts | 86° |
| 2026-04-21 14:50 | 23.16966 | 75.00513 | 34915 ft | 488 kts | 86° |
| 2026-04-21 14:51 | 23.17091 | 75.07773 | 34913 ft | 491 kts | 86° |
| 2026-04-21 14:51 | 23.17215 | 75.15160 | 34926 ft | 491 kts | 87° |
| 2026-04-21 14:52 | 23.17336 | 75.22577 | 34935 ft | 492 kts | 87° |
| 2026-04-21 14:52 | 23.17453 | 75.30003 | 34933 ft | 493 kts | 87° |
| 2026-04-21 14:53 | 23.17568 | 75.37447 | 34929 ft | 494 kts | 87° |
| 2026-04-21 14:53 | 23.17679 | 75.44916 | 34928 ft | 494 kts | 87° |
| 2026-04-21 14:54 | 23.17786 | 75.52357 | 34932 ft | 496 kts | 87° |
| 2026-04-21 14:54 | 23.17891 | 75.59857 | 34917 ft | 497 kts | 87° |
| 2026-04-21 14:55 | 23.17992 | 75.67403 | 34919 ft | 497 kts | 88° |
| 2026-04-21 14:55 | 23.18091 | 75.74996 | 34924 ft | 500 kts | 88° |
| 2026-04-21 14:56 | 23.18186 | 75.82564 | 34922 ft | 500 kts | 88° |
| 2026-04-21 14:56 | 23.18276 | 75.90080 | 34921 ft | 498 kts | 88° |
| 2026-04-21 14:57 | 23.18363 | 75.97614 | 34926 ft | 500 kts | 89° |
| 2026-04-21 14:57 | 23.18677 | 76.05130 | 34921 ft | 499 kts | 84° |
| 2026-04-21 14:58 | 23.19318 | 76.12679 | 34911 ft | 499 kts | 84° |
| 2026-04-21 14:58 | 23.19935 | 76.20216 | 34911 ft | 504 kts | 84° |
| 2026-04-21 14:59 | 23.20534 | 76.27776 | 34909 ft | 504 kts | 84° |
| 2026-04-21 14:59 | 23.21127 | 76.35396 | 34909 ft | 506 kts | 84° |
| 2026-04-21 15:00 | 23.21712 | 76.43027 | 34913 ft | 508 kts | 84° |
| 2026-04-21 15:00 | 23.22292 | 76.50666 | 34918 ft | 511 kts | 85° |
| 2026-04-21 15:01 | 23.22867 | 76.58300 | 34918 ft | 511 kts | 85° |
| 2026-04-21 15:01 | 23.23447 | 76.66074 | 34916 ft | 510 kts | 85° |
| 2026-04-21 15:02 | 23.24007 | 76.73621 | 34899 ft | 513 kts | 85° |
| 2026-04-21 15:02 | 23.24580 | 76.81412 | 34903 ft | 516 kts | 86° |
| 2026-04-21 15:03 | 23.25146 | 76.89146 | 34907 ft | 518 kts | 86° |
| 2026-04-21 15:03 | 23.25715 | 76.96991 | 34911 ft | 517 kts | 85° |
| 2026-04-21 15:04 | 23.26276 | 77.04767 | 34917 ft | 520 kts | 86° |
| 2026-04-21 15:04 | 23.26831 | 77.12521 | 34917 ft | 518 kts | 85° |
| 2026-04-21 15:05 | 23.27393 | 77.20423 | 34920 ft | 523 kts | 86° |
| 2026-04-21 15:05 | 23.28217 | 77.32178 | 34919 ft | 523 kts | 88° |
| 2026-04-21 15:06 | 23.28075 | 77.40082 | 34915 ft | 524 kts | 94° |
| 2026-04-21 15:06 | 23.27748 | 77.47980 | 34916 ft | 523 kts | 93° |
| 2026-04-21 15:07 | 23.27419 | 77.55852 | 34899 ft | 528 kts | 94° |
| 2026-04-21 15:07 | 23.27086 | 77.63776 | 34892 ft | 524 kts | 94° |
| 2026-04-21 15:08 | 23.26745 | 77.71802 | 34885 ft | 529 kts | 94° |
| 2026-04-21 15:08 | 23.26403 | 77.79773 | 34882 ft | 522 kts | 94° |
| 2026-04-21 15:09 | 23.26056 | 77.87747 | 34881 ft | 529 kts | 94° |
| 2026-04-21 15:09 | 23.25708 | 77.95673 | 34874 ft | 527 kts | 95° |
| 2026-04-21 15:10 | 23.25355 | 78.03611 | 34868 ft | 529 kts | 95° |
| 2026-04-21 15:10 | 23.24995 | 78.11605 | 34869 ft | 530 kts | 94° |
| 2026-04-21 15:11 | 23.24632 | 78.19585 | 34876 ft | 531 kts | 95° |
| 2026-04-21 15:11 | 23.24265 | 78.27578 | 34866 ft | 534 kts | 95° |
| 2026-04-21 15:12 | 23.23894 | 78.35586 | 34851 ft | 530 kts | 95° |
| 2026-04-21 15:12 | 23.23513 | 78.43659 | 34849 ft | 536 kts | 95° |
| 2026-04-21 15:13 | 23.23132 | 78.51698 | 34848 ft | 534 kts | 95° |
| 2026-04-21 15:13 | 23.22746 | 78.59739 | 34854 ft | 533 kts | 96° |
| 2026-04-21 15:14 | 23.22350 | 78.67900 | 34848 ft | 535 kts | 96° |
| 2026-04-21 15:14 | 23.21969 | 78.76038 | 34859 ft | 537 kts | 94° |
| 2026-04-21 15:15 | 23.21862 | 78.84121 | 34860 ft | 541 kts | 94° |
| 2026-04-21 15:15 | 23.21763 | 78.92327 | 34874 ft | 539 kts | 94° |
| 2026-04-21 15:16 | 23.21652 | 79.00415 | 34865 ft | 537 kts | 94° |
| 2026-04-21 15:16 | 23.21530 | 79.08572 | 34868 ft | 540 kts | 95° |
| 2026-04-21 15:17 | 23.21401 | 79.16739 | 34874 ft | 541 kts | 95° |
| 2026-04-21 15:17 | 23.21265 | 79.24939 | 34877 ft | 546 kts | 95° |
| 2026-04-21 15:18 | 23.21126 | 79.33129 | 34873 ft | 542 kts | 95° |
| 2026-04-21 15:18 | 23.20980 | 79.41316 | 34870 ft | 545 kts | 95° |
| 2026-04-21 15:19 | 23.20830 | 79.49541 | 34870 ft | 546 kts | 95° |
| 2026-04-21 15:19 | 23.20675 | 79.57728 | 34864 ft | 544 kts | 96° |
| 2026-04-21 15:20 | 23.20342 | 79.66002 | 34860 ft | 547 kts | 97° |
| 2026-04-21 15:20 | 23.19975 | 79.74392 | 34855 ft | 547 kts | 97° |
| 2026-04-21 15:21 | 23.19615 | 79.82662 | 34858 ft | 547 kts | 97° |
| 2026-04-21 15:21 | 23.19255 | 79.90896 | 34846 ft | 547 kts | 97° |
| 2026-04-21 15:22 | 23.18891 | 79.99153 | 34858 ft | 548 kts | 97° |
| 2026-04-21 15:22 | 23.18522 | 80.07433 | 34843 ft | 549 kts | 98° |
| 2026-04-21 15:23 | 23.18100 | 80.15685 | 34871 ft | 550 kts | 98° |
| 2026-04-21 15:23 | 23.17670 | 80.23929 | 34876 ft | 550 kts | 98° |
| 2026-04-21 15:24 | 23.17233 | 80.32260 | 34890 ft | 553 kts | 98° |
| 2026-04-21 15:24 | 23.16795 | 80.40562 | 34925 ft | 552 kts | 99° |
| 2026-04-21 15:25 | 23.16353 | 80.48840 | 34932 ft | 553 kts | 98° |
| 2026-04-21 15:25 | 23.15905 | 80.57166 | 34932 ft | 553 kts | 98° |
| 2026-04-21 15:26 | 23.15449 | 80.65559 | 34938 ft | 556 kts | 99° |
| 2026-04-21 15:26 | 23.14990 | 80.73930 | 34915 ft | 555 kts | 99° |
| 2026-04-21 15:27 | 23.14536 | 80.82272 | 34913 ft | 555 kts | 99° |
| 2026-04-21 15:27 | 23.14084 | 80.90623 | 34920 ft | 554 kts | 99° |
| 2026-04-21 15:28 | 23.13626 | 80.98986 | 34932 ft | 555 kts | 99° |
| 2026-04-21 15:28 | 23.13167 | 81.07313 | 34949 ft | 555 kts | 100° |
| 2026-04-21 15:29 | 23.12699 | 81.15667 | 34939 ft | 557 kts | 99° |
| 2026-04-21 15:29 | 23.12229 | 81.24017 | 34938 ft | 558 kts | 99° |
| 2026-04-21 15:30 | 23.11751 | 81.32426 | 34945 ft | 557 kts | 99° |
| 2026-04-21 15:30 | 23.11269 | 81.40812 | 34951 ft | 559 kts | 99° |
| 2026-04-21 15:31 | 23.10785 | 81.49173 | 34953 ft | 555 kts | 99° |
| 2026-04-21 15:31 | 23.10293 | 81.57577 | 34944 ft | 558 kts | 99° |
| 2026-04-21 15:32 | 23.09800 | 81.65942 | 34920 ft | 557 kts | 100° |
| 2026-04-21 15:32 | 23.09299 | 81.74346 | 34886 ft | 557 kts | 100° |
| 2026-04-21 15:33 | 23.08795 | 81.82736 | 34888 ft | 556 kts | 100° |
| 2026-04-21 15:33 | 23.08285 | 81.91135 | 34888 ft | 557 kts | 100° |
| 2026-04-21 15:34 | 23.07777 | 81.99458 | 34886 ft | 555 kts | 100° |
| 2026-04-21 15:34 | 23.07259 | 82.07837 | 34884 ft | 557 kts | 100° |
| 2026-04-21 15:35 | 23.06741 | 82.16185 | 34869 ft | 555 kts | 100° |
| 2026-04-21 15:35 | 23.06344 | 82.24548 | 34850 ft | 558 kts | 98° |
| 2026-04-21 15:36 | 23.05993 | 82.32965 | 34851 ft | 557 kts | 98° |
| 2026-04-21 15:36 | 23.05632 | 82.41351 | 34862 ft | 558 kts | 98° |
| 2026-04-21 15:37 | 23.05265 | 82.49727 | 34868 ft | 556 kts | 98° |
| 2026-04-21 15:37 | 23.04892 | 82.58076 | 34874 ft | 558 kts | 98° |
| 2026-04-21 15:38 | 23.04511 | 82.66492 | 34868 ft | 557 kts | 99° |
| 2026-04-21 15:38 | 23.04118 | 82.75060 | 34864 ft | 558 kts | 99° |
| 2026-04-21 15:39 | 23.03723 | 82.83554 | 34871 ft | 556 kts | 99° |
| 2026-04-21 15:39 | 23.03330 | 82.91909 | 34878 ft | 555 kts | 99° |
| 2026-04-21 15:40 | 23.02933 | 83.00251 | 34885 ft | 556 kts | 99° |
| 2026-04-21 15:40 | 23.02532 | 83.08591 | 34891 ft | 556 kts | 99° |
| 2026-04-21 15:41 | 23.02120 | 83.17043 | 34903 ft | 554 kts | 99° |
| 2026-04-21 15:41 | 23.01709 | 83.25410 | 34917 ft | 557 kts | 98° |
| 2026-04-21 15:42 | 23.01294 | 83.33759 | 34928 ft | 554 kts | 98° |
| 2026-04-21 15:42 | 23.00875 | 83.42104 | 34938 ft | 555 kts | 99° |
| 2026-04-21 15:43 | 23.00449 | 83.50468 | 34948 ft | 556 kts | 98° |
| 2026-04-21 15:43 | 23.00021 | 83.58841 | 34959 ft | 553 kts | 99° |
| 2026-04-21 15:44 | 22.99586 | 83.67207 | 34966 ft | 555 kts | 99° |
| 2026-04-21 15:44 | 22.99145 | 83.75621 | 34985 ft | 555 kts | 99° |
| 2026-04-21 15:45 | 22.98702 | 83.84013 | 34988 ft | 553 kts | 99° |
| 2026-04-21 15:45 | 22.98254 | 83.92387 | 34991 ft | 555 kts | 99° |
| 2026-04-21 15:46 | 22.97805 | 84.00710 | 34993 ft | 557 kts | 99° |
| 2026-04-21 15:46 | 22.97350 | 84.09067 | 34988 ft | 554 kts | 99° |
| 2026-04-21 15:47 | 22.96850 | 84.17367 | 34976 ft | 553 kts | 100° |
| 2026-04-21 15:47 | 22.96243 | 84.25648 | 34972 ft | 555 kts | 100° |
| 2026-04-21 15:48 | 22.95630 | 84.33988 | 34964 ft | 553 kts | 100° |
| 2026-04-21 15:48 | 22.95019 | 84.42277 | 34945 ft | 553 kts | 100° |
| 2026-04-21 15:49 | 22.94406 | 84.50562 | 34932 ft | 555 kts | 100° |
| 2026-04-21 15:49 | 22.93790 | 84.58859 | 34915 ft | 551 kts | 100° |
| 2026-04-21 15:50 | 22.93166 | 84.67208 | 34886 ft | 553 kts | 101° |
| 2026-04-21 15:50 | 22.92530 | 84.75652 | 34867 ft | 554 kts | 100° |
| 2026-04-21 15:51 | 22.91899 | 84.83992 | 34866 ft | 554 kts | 101° |
| 2026-04-21 15:51 | 22.91269 | 84.92258 | 34859 ft | 551 kts | 101° |
| 2026-04-21 15:52 | 22.90636 | 85.00501 | 34850 ft | 552 kts | 101° |
| 2026-04-21 15:52 | 22.89995 | 85.08776 | 34848 ft | 554 kts | 100° |
| 2026-04-21 15:53 | 22.89337 | 85.17273 | 34865 ft | 552 kts | 100° |
| 2026-04-21 15:53 | 22.88685 | 85.25723 | 34858 ft | 552 kts | 100° |
| 2026-04-21 15:54 | 22.88041 | 85.34021 | 34838 ft | 550 kts | 100° |
| 2026-04-21 15:54 | 22.87397 | 85.42248 | 34832 ft | 552 kts | 100° |
| 2026-04-21 15:55 | 22.86749 | 85.50490 | 34825 ft | 549 kts | 101° |
| 2026-04-21 15:55 | 22.86096 | 85.58713 | 34812 ft | 550 kts | 100° |
| 2026-04-21 15:56 | 22.85436 | 85.66979 | 34785 ft | 551 kts | 101° |
| 2026-04-21 15:56 | 22.84764 | 85.75352 | 34766 ft | 550 kts | 101° |
| 2026-04-21 15:57 | 22.84094 | 85.83635 | 34761 ft | 550 kts | 101° |
| 2026-04-21 15:57 | 22.83425 | 85.91860 | 34750 ft | 550 kts | 101° |
| 2026-04-21 15:58 | 22.82753 | 86.00069 | 34742 ft | 549 kts | 101° |
| 2026-04-21 15:58 | 22.82071 | 86.08337 | 34734 ft | 550 kts | 101° |
| 2026-04-21 15:59 | 22.81390 | 86.16549 | 34736 ft | 549 kts | 101° |
| 2026-04-21 15:59 | 22.80875 | 86.24792 | 34741 ft | 550 kts | 98° |
| 2026-04-21 16:00 | 22.80454 | 86.33034 | 34753 ft | 549 kts | 98° |
| 2026-04-21 16:00 | 22.80021 | 86.41246 | 34759 ft | 551 kts | 98° |
| 2026-04-21 16:01 | 22.79576 | 86.49534 | 34780 ft | 547 kts | 98° |
| 2026-04-21 16:01 | 22.79127 | 86.57725 | 34779 ft | 549 kts | 98° |
| 2026-04-21 16:02 | 22.78669 | 86.65974 | 34770 ft | 548 kts | 99° |
| 2026-04-21 16:02 | 22.78196 | 86.74413 | 34745 ft | 545 kts | 99° |
| 2026-04-21 16:03 | 22.77730 | 86.82610 | 34726 ft | 548 kts | 99° |
| 2026-04-21 16:03 | 22.77263 | 86.90782 | 34714 ft | 547 kts | 99° |
| 2026-04-21 16:04 | 22.76787 | 86.99015 | 34703 ft | 545 kts | 98° |
| 2026-04-21 16:04 | 22.76312 | 87.07162 | 34703 ft | 545 kts | 99° |
| 2026-04-21 16:05 | 22.75829 | 87.15363 | 34707 ft | 545 kts | 99° |
| 2026-04-21 16:05 | 22.75343 | 87.23533 | 34708 ft | 547 kts | 99° |
| 2026-04-21 16:06 | 22.74854 | 87.31702 | 34708 ft | 546 kts | 99° |
| 2026-04-21 16:06 | 22.74362 | 87.39861 | 34706 ft | 545 kts | 99° |
| 2026-04-21 16:07 | 22.73864 | 87.48031 | 34707 ft | 546 kts | 98° |
| 2026-04-21 16:07 | 22.73360 | 87.56216 | 34709 ft | 548 kts | 98° |
| 2026-04-21 16:08 | 22.72591 | 87.68626 | 34692 ft | 544 kts | 98° |
| 2026-04-21 16:09 | 22.72078 | 87.76797 | 34701 ft | 547 kts | 99° |
| 2026-04-21 16:09 | 22.71558 | 87.85018 | 34705 ft | 545 kts | 98° |
| 2026-04-21 16:10 | 22.71037 | 87.93191 | 34713 ft | 545 kts | 99° |
| 2026-04-21 16:10 | 22.70515 | 88.01311 | 34713 ft | 547 kts | 99° |
| 2026-04-21 16:11 | 22.69985 | 88.09509 | 34717 ft | 543 kts | 98° |
| 2026-04-21 16:11 | 22.69460 | 88.17541 | 34722 ft | 544 kts | 98° |
| 2026-04-21 16:12 | 22.69007 | 88.24435 | 34723 ft | 545 kts | 99° |
| 2026-04-21 16:12 | 22.68379 | 88.33910 | 34727 ft | 545 kts | 98° |
| 2026-04-21 16:13 | 22.67832 | 88.42088 | 34733 ft | 545 kts | 98° |
| 2026-04-21 16:13 | 22.66760 | 88.50172 | 35024 ft | 546 kts | 105° |
| 2026-04-21 16:13 | 22.66094 | 88.54196 | 35752 ft | 542 kts | 105° |
| 2026-04-21 16:14 | 22.65434 | 88.58171 | 36563 ft | 536 kts | 105° |
| 2026-04-21 16:14 | 22.64767 | 88.62172 | 36733 ft | 540 kts | 105° |
| 2026-04-21 16:14 | 22.64103 | 88.66151 | 36739 ft | 537 kts | 106° |
| 2026-04-21 16:15 | 22.62758 | 88.74191 | 36732 ft | 537 kts | 106° |
| 2026-04-21 16:15 | 22.61389 | 88.82349 | 36729 ft | 536 kts | 106° |
| 2026-04-21 16:16 | 22.60029 | 88.90429 | 36739 ft | 537 kts | 106° |
| 2026-04-21 16:16 | 22.58826 | 88.98373 | 36743 ft | 537 kts | 102° |
| 2026-04-21 16:17 | 22.57990 | 89.06397 | 36751 ft | 539 kts | 101° |
| 2026-04-21 16:17 | 22.57137 | 89.14449 | 36754 ft | 539 kts | 102° |
| 2026-04-21 16:18 | 22.56267 | 89.22482 | 36755 ft | 539 kts | 102° |
| 2026-04-21 16:18 | 22.55393 | 89.30440 | 36752 ft | 538 kts | 101° |
| 2026-04-21 16:19 | 22.54504 | 89.38463 | 36757 ft | 537 kts | 102° |
| 2026-04-21 16:19 | 22.53612 | 89.46449 | 36762 ft | 538 kts | 102° |
| 2026-04-21 16:20 | 22.52711 | 89.54462 | 36759 ft | 538 kts | 102° |
| 2026-04-21 16:20 | 22.51804 | 89.62492 | 36758 ft | 537 kts | 101° |
| 2026-04-21 16:21 | 22.50888 | 89.70558 | 36745 ft | 536 kts | 102° |
| 2026-04-21 16:21 | 22.49969 | 89.78602 | 36746 ft | 537 kts | 102° |
| 2026-04-21 16:22 | 22.49056 | 89.86569 | 36760 ft | 536 kts | 102° |
| 2026-04-21 16:22 | 22.48139 | 89.94536 | 36769 ft | 537 kts | 102° |
| 2026-04-21 16:23 | 22.47216 | 90.02516 | 36774 ft | 536 kts | 101° |
| 2026-04-21 16:23 | 22.46279 | 90.10577 | 36776 ft | 534 kts | 102° |
| 2026-04-21 16:24 | 22.45350 | 90.18539 | 36779 ft | 535 kts | 101° |
| 2026-04-21 16:24 | 22.44414 | 90.26521 | 36774 ft | 535 kts | 102° |
| 2026-04-21 16:25 | 22.43468 | 90.34553 | 36778 ft | 535 kts | 102° |
| 2026-04-21 16:25 | 22.42531 | 90.42477 | 36782 ft | 537 kts | 101° |
| 2026-04-21 16:26 | 22.41577 | 90.50510 | 36784 ft | 536 kts | 101° |
| 2026-04-21 16:26 | 22.40629 | 90.58469 | 36787 ft | 536 kts | 102° |
| 2026-04-21 16:27 | 22.39670 | 90.66472 | 36780 ft | 536 kts | 102° |
| 2026-04-21 16:27 | 22.38694 | 90.74585 | 36779 ft | 535 kts | 102° |
| 2026-04-21 16:28 | 22.37734 | 90.82535 | 36781 ft | 536 kts | 102° |
| 2026-04-21 16:28 | 22.36764 | 90.90537 | 36785 ft | 535 kts | 102° |
| 2026-04-21 16:29 | 22.35950 | 90.97219 | 36788 ft | 535 kts | 102° |
| 2026-04-21 16:29 | 22.34812 | 91.06528 | 36789 ft | 536 kts | 102° |
| 2026-04-21 16:30 | 22.33835 | 91.14481 | 36792 ft | 534 kts | 102° |
| 2026-04-21 16:30 | 22.32854 | 91.22444 | 36800 ft | 533 kts | 102° |
| 2026-04-21 16:31 | 22.31871 | 91.30375 | 36803 ft | 534 kts | 102° |
| 2026-04-21 16:31 | 22.30880 | 91.38348 | 36802 ft | 535 kts | 102° |
| 2026-04-21 16:32 | 22.29963 | 91.46293 | 36807 ft | 535 kts | 101° |
| 2026-04-21 16:32 | 22.29057 | 91.54269 | 36810 ft | 536 kts | 101° |
| 2026-04-21 16:33 | 22.28145 | 91.62240 | 36815 ft | 535 kts | 101° |
| 2026-04-21 16:33 | 22.27220 | 91.70279 | 36800 ft | 533 kts | 101° |
| 2026-04-21 16:34 | 22.26296 | 91.78255 | 36805 ft | 536 kts | 101° |
| 2026-04-21 16:34 | 22.26295 | 91.86305 | 36806 ft | 542 kts | 84° |
| 2026-04-21 16:35 | 22.27391 | 91.94383 | 36813 ft | 541 kts | 83° |
| 2026-04-21 16:35 | 22.28508 | 92.02380 | 36813 ft | 543 kts | 83° |
| 2026-04-21 16:36 | 22.29631 | 92.10461 | 36822 ft | 542 kts | 83° |
| 2026-04-21 16:36 | 22.30743 | 92.18499 | 36831 ft | 541 kts | 83° |
| 2026-04-21 16:37 | 22.31848 | 92.26523 | 36838 ft | 541 kts | 83° |
| 2026-04-21 16:37 | 22.32955 | 92.34596 | 36846 ft | 541 kts | 83° |
| 2026-04-21 16:38 | 22.34049 | 92.42609 | 36850 ft | 541 kts | 83° |
| 2026-04-21 16:38 | 22.35152 | 92.50713 | 36865 ft | 539 kts | 83° |
| 2026-04-21 16:39 | 22.36245 | 92.58773 | 36867 ft | 540 kts | 83° |
| 2026-04-21 16:39 | 22.37333 | 92.66831 | 36872 ft | 540 kts | 83° |
| 2026-04-21 16:40 | 22.38436 | 92.75037 | 36879 ft | 541 kts | 83° |
| 2026-04-21 16:40 | 22.39519 | 92.83061 | 36902 ft | 540 kts | 83° |
| 2026-04-21 16:41 | 22.40425 | 92.89797 | 36937 ft | 541 kts | 83° |
| 2026-04-21 16:41 | 22.41691 | 92.99236 | 36998 ft | 540 kts | 83° |
| 2026-04-21 16:42 | 22.42772 | 93.07335 | 37015 ft | 541 kts | 83° |
| 2026-04-21 16:42 | 22.43844 | 93.15394 | 37013 ft | 541 kts | 83° |
| 2026-04-21 16:43 | 22.44920 | 93.23523 | 37002 ft | 542 kts | 83° |
| 2026-04-21 16:43 | 22.45992 | 93.31645 | 37027 ft | 542 kts | 83° |
| 2026-04-21 16:44 | 22.47054 | 93.39730 | 37114 ft | 542 kts | 83° |
| 2026-04-21 16:44 | 22.48116 | 93.47840 | 37190 ft | 543 kts | 83° |
| 2026-04-21 16:45 | 22.49169 | 93.55917 | 37208 ft | 543 kts | 83° |
| 2026-04-21 16:45 | 22.50216 | 93.63982 | 37154 ft | 546 kts | 83° |
| 2026-04-21 16:46 | 22.51283 | 93.72234 | 37077 ft | 545 kts | 83° |
| 2026-04-21 16:46 | 22.52336 | 93.80411 | 37009 ft | 545 kts | 83° |
| 2026-04-21 16:47 | 22.53380 | 93.88554 | 36935 ft | 548 kts | 83° |
| 2026-04-21 16:47 | 22.54418 | 93.96676 | 36842 ft | 546 kts | 83° |
| 2026-04-21 16:48 | 22.55459 | 94.04857 | 36813 ft | 545 kts | 83° |
| 2026-04-21 16:48 | 22.56489 | 94.12991 | 36842 ft | 548 kts | 83° |
| 2026-04-21 16:49 | 22.57512 | 94.21090 | 36879 ft | 546 kts | 83° |
| 2026-04-21 16:49 | 22.58534 | 94.29224 | 36899 ft | 548 kts | 83° |
| 2026-04-21 16:50 | 22.59551 | 94.37356 | 36854 ft | 547 kts | 83° |
| 2026-04-21 16:50 | 22.60566 | 94.45499 | 36812 ft | 546 kts | 83° |
| 2026-04-21 16:51 | 22.61581 | 94.53683 | 36771 ft | 545 kts | 83° |
| 2026-04-21 16:51 | 22.62597 | 94.61899 | 36767 ft | 547 kts | 83° |
| 2026-04-21 16:52 | 22.63611 | 94.70147 | 36741 ft | 546 kts | 83° |
| 2026-04-21 16:52 | 22.64627 | 94.78435 | 36720 ft | 545 kts | 83° |
| 2026-04-21 16:53 | 22.65617 | 94.86557 | 36729 ft | 546 kts | 83° |
| 2026-04-21 16:53 | 22.66614 | 94.94762 | 36731 ft | 546 kts | 83° |
| 2026-04-21 16:54 | 22.67605 | 95.02959 | 36723 ft | 546 kts | 83° |
| 2026-04-21 16:54 | 22.68586 | 95.11109 | 36724 ft | 545 kts | 83° |
| 2026-04-21 16:55 | 22.69575 | 95.19360 | 36721 ft | 546 kts | 83° |
| 2026-04-21 16:55 | 22.70542 | 95.27460 | 36722 ft | 545 kts | 83° |
| 2026-04-21 16:56 | 22.71506 | 95.35575 | 36723 ft | 545 kts | 83° |
| 2026-04-21 16:56 | 22.72475 | 95.43761 | 36726 ft | 546 kts | 83° |
| 2026-04-21 16:57 | 22.73435 | 95.51916 | 36726 ft | 546 kts | 83° |
| 2026-04-21 16:57 | 22.74394 | 95.60088 | 36726 ft | 545 kts | 83° |
| 2026-04-21 16:58 | 22.75360 | 95.68368 | 36714 ft | 545 kts | 83° |
| 2026-04-21 16:58 | 22.76317 | 95.76602 | 36715 ft | 545 kts | 83° |
| 2026-04-21 16:59 | 22.77261 | 95.84763 | 36730 ft | 548 kts | 83° |
| 2026-04-21 16:59 | 22.78197 | 95.92897 | 36727 ft | 545 kts | 83° |
| 2026-04-21 17:00 | 22.79139 | 96.01112 | 36726 ft | 547 kts | 83° |
| 2026-04-21 17:00 | 22.79913 | 96.07897 | 36751 ft | 545 kts | 83° |
| 2026-04-21 17:01 | 22.80998 | 96.17443 | 36829 ft | 544 kts | 83° |
| 2026-04-21 17:01 | 22.81914 | 96.25549 | 36891 ft | 545 kts | 83° |
| 2026-04-21 17:02 | 22.82837 | 96.33742 | 36910 ft | 546 kts | 83° |
| 2026-04-21 17:02 | 22.83750 | 96.41897 | 36954 ft | 545 kts | 83° |
| 2026-04-21 17:03 | 22.84655 | 96.50017 | 36967 ft | 543 kts | 83° |
| 2026-04-21 17:03 | 22.85554 | 96.58122 | 36985 ft | 543 kts | 83° |
| 2026-04-21 17:04 | 22.86463 | 96.66357 | 36982 ft | 544 kts | 83° |
| 2026-04-21 17:04 | 22.87382 | 96.74711 | 36969 ft | 545 kts | 83° |
| 2026-04-21 17:05 | 22.88283 | 96.82952 | 36956 ft | 544 kts | 83° |
| 2026-04-21 17:05 | 22.89175 | 96.91152 | 36980 ft | 545 kts | 83° |
| 2026-04-21 17:06 | 22.90062 | 96.99335 | 36970 ft | 545 kts | 83° |
| 2026-04-21 17:06 | 22.90938 | 97.07465 | 36985 ft | 543 kts | 83° |
| 2026-04-21 17:07 | 22.91668 | 97.14269 | 37010 ft | 541 kts | 83° |
| 2026-04-21 17:07 | 22.92681 | 97.23751 | 37047 ft | 541 kts | 83° |
| 2026-04-21 17:08 | 22.93541 | 97.31855 | 37038 ft | 544 kts | 83° |
| 2026-04-21 17:08 | 22.94402 | 97.39996 | 36991 ft | 543 kts | 83° |
| 2026-04-21 17:09 | 22.95687 | 97.52229 | 36945 ft | 544 kts | 83° |
| 2026-04-21 17:09 | 22.96538 | 97.60384 | 36945 ft | 542 kts | 83° |
| 2026-04-21 17:10 | 22.97390 | 97.68584 | 36928 ft | 543 kts | 83° |
| 2026-04-21 17:10 | 22.98595 | 97.76811 | 36935 ft | 540 kts | 72° |
| 2026-04-21 17:11 | 23.01132 | 97.84502 | 36946 ft | 540 kts | 67° |
| 2026-04-21 17:11 | 23.03788 | 97.92151 | 36956 ft | 540 kts | 68° |
| 2026-04-21 17:12 | 23.06413 | 97.99769 | 36965 ft | 540 kts | 68° |
| 2026-04-21 17:12 | 23.09046 | 98.07447 | 36983 ft | 540 kts | 67° |
| 2026-04-21 17:13 | 23.11694 | 98.15201 | 37018 ft | 540 kts | 68° |
| 2026-04-21 17:13 | 23.14334 | 98.22951 | 37058 ft | 540 kts | 67° |
| 2026-04-21 17:14 | 23.16957 | 98.30671 | 37060 ft | 541 kts | 67° |
| 2026-04-21 17:14 | 23.19574 | 98.38389 | 37038 ft | 541 kts | 68° |
| 2026-04-21 17:15 | 23.22208 | 98.46173 | 37014 ft | 541 kts | 67° |
| 2026-04-21 17:15 | 23.24845 | 98.53985 | 37001 ft | 540 kts | 68° |
| 2026-04-21 17:16 | 23.27467 | 98.61764 | 37027 ft | 540 kts | 67° |
| 2026-04-21 17:16 | 23.30042 | 98.69418 | 37038 ft | 542 kts | 68° |
| 2026-04-21 17:17 | 23.32728 | 98.77418 | 37054 ft | 542 kts | 68° |
| 2026-04-21 17:17 | 23.35315 | 98.85135 | 37031 ft | 542 kts | 68° |
| 2026-04-21 17:18 | 23.37926 | 98.92950 | 37003 ft | 544 kts | 68° |
| 2026-04-21 17:18 | 23.40352 | 99.00682 | 36988 ft | 543 kts | 69° |
| 2026-04-21 17:19 | 23.42791 | 99.08517 | 37051 ft | 543 kts | 69° |
| 2026-04-21 17:19 | 23.45204 | 99.16269 | 37131 ft | 543 kts | 69° |
| 2026-04-21 17:20 | 23.47625 | 99.24051 | 37215 ft | 542 kts | 69° |
| 2026-04-21 17:20 | 23.50039 | 99.31818 | 37222 ft | 544 kts | 69° |
| 2026-04-21 17:21 | 23.52503 | 99.39605 | 37157 ft | 542 kts | 64° |
| 2026-04-21 17:21 | 23.56005 | 99.46922 | 37117 ft | 537 kts | 56° |
| 2026-04-21 17:22 | 23.59733 | 99.54051 | 37113 ft | 538 kts | 56° |
| 2026-04-21 17:22 | 23.63448 | 99.61166 | 37144 ft | 539 kts | 56° |
| 2026-04-21 17:23 | 23.67140 | 99.68250 | 37157 ft | 538 kts | 56° |
| 2026-04-21 17:23 | 23.70936 | 99.75546 | 37192 ft | 539 kts | 56° |
| 2026-04-21 17:24 | 23.74629 | 99.82657 | 37212 ft | 539 kts | 56° |
| 2026-04-21 17:24 | 23.78335 | 99.89801 | 37205 ft | 540 kts | 56° |
| 2026-04-21 17:25 | 23.82020 | 99.96918 | 37203 ft | 541 kts | 56° |
| 2026-04-21 17:25 | 23.85736 | 100.04104 | 37204 ft | 540 kts | 56° |
| 2026-04-21 17:26 | 23.89450 | 100.11296 | 37214 ft | 541 kts | 56° |
| 2026-04-21 17:26 | 23.93133 | 100.18443 | 37239 ft | 540 kts | 56° |
| 2026-04-21 17:27 | 23.96837 | 100.25637 | 37285 ft | 541 kts | 56° |
| 2026-04-21 17:27 | 24.00526 | 100.32812 | 37271 ft | 540 kts | 56° |
| 2026-04-21 17:28 | 24.04223 | 100.40015 | 37207 ft | 539 kts | 56° |
| 2026-04-21 17:28 | 24.07911 | 100.47212 | 37126 ft | 539 kts | 56° |
| 2026-04-21 17:29 | 24.11631 | 100.54480 | 37082 ft | 541 kts | 56° |
| 2026-04-21 17:29 | 24.15365 | 100.61873 | 37117 ft | 542 kts | 56° |
| 2026-04-21 17:30 | 24.19037 | 100.69206 | 37130 ft | 543 kts | 57° |
| 2026-04-21 17:30 | 24.22602 | 100.76332 | 37173 ft | 541 kts | 57° |
| 2026-04-21 17:31 | 24.26242 | 100.83616 | 37153 ft | 540 kts | 57° |
| 2026-04-21 17:31 | 24.29932 | 100.91008 | 37129 ft | 541 kts | 57° |
| 2026-04-21 17:32 | 24.33535 | 100.98238 | 37116 ft | 541 kts | 57° |
| 2026-04-21 17:32 | 24.37180 | 101.05563 | 37127 ft | 543 kts | 57° |
| 2026-04-21 17:33 | 24.40788 | 101.12824 | 37135 ft | 542 kts | 56° |
| 2026-04-21 17:33 | 24.44373 | 101.20051 | 37120 ft | 539 kts | 56° |
| 2026-04-21 17:34 | 24.47966 | 101.27304 | 37092 ft | 540 kts | 56° |
| 2026-04-21 17:34 | 24.51566 | 101.34581 | 37064 ft | 541 kts | 56° |
| 2026-04-21 17:35 | 24.55138 | 101.41813 | 37066 ft | 540 kts | 56° |
| 2026-04-21 17:35 | 24.58708 | 101.49053 | 37063 ft | 541 kts | 56° |
| 2026-04-21 17:36 | 24.62299 | 101.56348 | 37075 ft | 539 kts | 56° |
| 2026-04-21 17:36 | 24.65835 | 101.63629 | 37109 ft | 543 kts | 57° |
| 2026-04-21 17:37 | 24.69278 | 101.70762 | 37106 ft | 540 kts | 57° |
| 2026-04-21 17:37 | 24.72837 | 101.78143 | 37123 ft | 540 kts | 57° |
| 2026-04-21 17:38 | 24.76382 | 101.85500 | 37129 ft | 541 kts | 57° |
| 2026-04-21 17:38 | 24.79923 | 101.92863 | 37133 ft | 542 kts | 57° |
| 2026-04-21 17:39 | 24.83460 | 102.00228 | 37125 ft | 541 kts | 57° |
| 2026-04-21 17:39 | 24.86974 | 102.07557 | 37124 ft | 540 kts | 57° |
| 2026-04-21 17:40 | 24.90482 | 102.14885 | 37134 ft | 540 kts | 57° |
| 2026-04-21 17:40 | 24.93976 | 102.22193 | 37152 ft | 541 kts | 57° |
| 2026-04-21 17:41 | 24.97499 | 102.29576 | 37173 ft | 540 kts | 57° |
| 2026-04-21 17:41 | 25.01010 | 102.36943 | 37185 ft | 541 kts | 57° |
| 2026-04-21 17:42 | 25.03970 | 102.44714 | 37184 ft | 551 kts | 71° |
| 2026-04-21 17:42 | 25.04931 | 102.53127 | 37190 ft | 557 kts | 90° |
| 2026-04-21 17:43 | 25.03777 | 102.61607 | 37182 ft | 556 kts | 108° |
| 2026-04-21 17:43 | 25.00732 | 102.69445 | 37150 ft | 551 kts | 120° |
| 2026-04-21 17:44 | 24.97216 | 102.77108 | 37122 ft | 549 kts | 120° |
| 2026-04-21 17:44 | 24.93796 | 102.84647 | 37132 ft | 550 kts | 119° |
| 2026-04-21 17:45 | 24.90438 | 102.92165 | 37140 ft | 550 kts | 118° |
| 2026-04-21 17:45 | 24.87114 | 102.99728 | 37161 ft | 549 kts | 118° |
| 2026-04-21 17:46 | 24.83777 | 103.07322 | 37152 ft | 549 kts | 118° |
| 2026-04-21 17:46 | 24.80464 | 103.14860 | 37128 ft | 550 kts | 118° |
| 2026-04-21 17:47 | 24.77140 | 103.22415 | 37113 ft | 549 kts | 118° |
| 2026-04-21 17:47 | 24.73797 | 103.30007 | 37118 ft | 548 kts | 118° |
| 2026-04-21 17:48 | 24.70476 | 103.37533 | 37123 ft | 550 kts | 118° |
| 2026-04-21 17:48 | 24.67136 | 103.45094 | 37131 ft | 547 kts | 118° |
| 2026-04-21 17:49 | 24.63789 | 103.52657 | 37131 ft | 550 kts | 118° |
| 2026-04-21 17:49 | 24.60453 | 103.60184 | 37141 ft | 549 kts | 118° |
| 2026-04-21 17:50 | 24.57079 | 103.67784 | 37120 ft | 549 kts | 118° |
| 2026-04-21 17:50 | 24.54061 | 103.75307 | 37106 ft | 551 kts | 108° |
| 2026-04-21 17:51 | 24.52212 | 103.83437 | 37105 ft | 551 kts | 103° |
| 2026-04-21 17:51 | 24.50477 | 103.91634 | 37096 ft | 551 kts | 103° |
| 2026-04-21 17:52 | 24.48738 | 103.99814 | 37085 ft | 552 kts | 103° |
| 2026-04-21 17:52 | 24.46982 | 104.08034 | 37069 ft | 552 kts | 103° |
| 2026-04-21 17:53 | 24.45223 | 104.16241 | 37042 ft | 552 kts | 103° |
| 2026-04-21 17:53 | 24.43453 | 104.24474 | 37043 ft | 552 kts | 103° |
| 2026-04-21 17:54 | 24.41678 | 104.32704 | 37029 ft | 551 kts | 103° |
| 2026-04-21 17:54 | 24.39907 | 104.40890 | 37011 ft | 553 kts | 103° |
| 2026-04-21 17:55 | 24.38138 | 104.49043 | 37006 ft | 552 kts | 103° |
| 2026-04-21 17:55 | 24.36355 | 104.57237 | 36997 ft | 551 kts | 103° |
| 2026-04-21 17:56 | 24.34581 | 104.65369 | 36987 ft | 551 kts | 104° |
| 2026-04-21 17:56 | 24.32812 | 104.73457 | 36970 ft | 552 kts | 103° |
| 2026-04-21 17:57 | 24.31002 | 104.81709 | 36964 ft | 552 kts | 104° |
| 2026-04-21 17:57 | 24.29194 | 104.89927 | 36947 ft | 552 kts | 103° |
| 2026-04-21 17:58 | 24.27389 | 104.98112 | 36921 ft | 553 kts | 103° |
| 2026-04-21 17:58 | 24.25565 | 105.06360 | 36905 ft | 552 kts | 103° |
| 2026-04-21 17:59 | 24.23738 | 105.14600 | 36895 ft | 552 kts | 103° |
| 2026-04-21 17:59 | 24.21921 | 105.22763 | 36927 ft | 550 kts | 104° |
| 2026-04-21 18:00 | 24.19966 | 105.30884 | 36991 ft | 550 kts | 105° |
| 2026-04-21 18:00 | 24.17998 | 105.38963 | 36993 ft | 550 kts | 105° |
| 2026-04-21 18:01 | 24.16018 | 105.47093 | 36979 ft | 550 kts | 104° |
| 2026-04-21 18:01 | 24.14047 | 105.55179 | 36978 ft | 551 kts | 104° |
| 2026-04-21 18:02 | 24.12069 | 105.63275 | 36985 ft | 549 kts | 104° |
| 2026-04-21 18:02 | 24.10092 | 105.71365 | 36963 ft | 548 kts | 103° |
| 2026-04-21 18:03 | 24.08434 | 105.79633 | 36957 ft | 547 kts | 101° |
| 2026-04-21 18:03 | 24.06844 | 105.87809 | 36941 ft | 548 kts | 101° |
| 2026-04-21 18:04 | 24.05218 | 105.96076 | 36913 ft | 546 kts | 101° |
| 2026-04-21 18:04 | 24.03606 | 106.04212 | 36893 ft | 547 kts | 101° |
| 2026-04-21 18:05 | 24.01979 | 106.12374 | 36893 ft | 547 kts | 101° |
| 2026-04-21 18:05 | 24.00355 | 106.20489 | 36896 ft | 543 kts | 101° |
| 2026-04-21 18:06 | 23.98714 | 106.28653 | 36898 ft | 545 kts | 101° |
| 2026-04-21 18:06 | 23.97359 | 106.35375 | 36901 ft | 542 kts | 101° |
| 2026-04-21 18:07 | 23.95455 | 106.44793 | 36907 ft | 541 kts | 101° |
| 2026-04-21 18:07 | 23.93850 | 106.52708 | 36906 ft | 541 kts | 101° |
| 2026-04-21 18:08 | 23.93254 | 106.55640 | 36904 ft | 542 kts | 101° |
| 2026-04-21 18:08 | 23.92443 | 106.59924 | 36895 ft | 540 kts | 96° |
| 2026-04-21 18:09 | 23.91458 | 106.73198 | 36896 ft | 537 kts | 91° |
| 2026-04-21 18:09 | 23.90758 | 106.83858 | 36897 ft | 536 kts | 92° |
| 2026-04-21 18:10 | 23.90211 | 106.92060 | 36908 ft | 534 kts | 92° |
| 2026-04-21 18:10 | 23.89673 | 107.00041 | 36900 ft | 535 kts | 92° |
| 2026-04-21 18:11 | 23.89132 | 107.07978 | 36896 ft | 534 kts | 91° |
| 2026-04-21 18:11 | 23.88580 | 107.16035 | 36893 ft | 534 kts | 91° |
| 2026-04-21 18:12 | 23.88047 | 107.23735 | 36888 ft | 533 kts | 91° |
| 2026-04-21 18:12 | 23.87480 | 107.31865 | 36895 ft | 534 kts | 92° |
| 2026-04-21 18:13 | 23.86906 | 107.40033 | 36896 ft | 533 kts | 92° |
| 2026-04-21 18:13 | 23.86321 | 107.48292 | 36890 ft | 533 kts | 92° |
| 2026-04-21 18:14 | 23.85453 | 107.60434 | 36906 ft | 534 kts | 92° |
| 2026-04-21 18:15 | 23.84864 | 107.68601 | 36898 ft | 533 kts | 92° |
| 2026-04-21 18:15 | 23.84383 | 107.75212 | 36907 ft | 532 kts | 92° |
| 2026-04-21 18:16 | 23.83442 | 107.88676 | 36899 ft | 532 kts | 91° |
| 2026-04-21 18:17 | 23.83056 | 107.96625 | 36884 ft | 532 kts | 91° |
| 2026-04-21 18:17 | 23.82655 | 108.04752 | 36885 ft | 531 kts | 91° |
| 2026-04-21 18:18 | 23.82268 | 108.12422 | 36890 ft | 530 kts | 91° |
| 2026-04-21 18:18 | 23.81839 | 108.20592 | 36895 ft | 530 kts | 91° |
| 2026-04-21 18:19 | 23.81384 | 108.28765 | 36903 ft | 528 kts | 91° |
| 2026-04-21 18:19 | 23.80943 | 108.36600 | 36905 ft | 529 kts | 91° |
| 2026-04-21 18:20 | 23.80481 | 108.44727 | 36906 ft | 528 kts | 91° |
| 2026-04-21 18:20 | 23.80014 | 108.52879 | 36912 ft | 529 kts | 91° |
| 2026-04-21 18:21 | 23.79540 | 108.61075 | 36919 ft | 528 kts | 91° |
| 2026-04-21 18:21 | 23.79068 | 108.69167 | 36915 ft | 527 kts | 91° |
| 2026-04-21 18:22 | 23.78587 | 108.77338 | 36918 ft | 527 kts | 91° |
| 2026-04-21 18:22 | 23.78114 | 108.85291 | 36913 ft | 528 kts | 91° |
| 2026-04-21 18:23 | 23.77627 | 108.93420 | 36911 ft | 527 kts | 91° |
| 2026-04-21 18:23 | 23.77141 | 109.01465 | 36902 ft | 528 kts | 91° |
| 2026-04-21 18:24 | 23.76652 | 109.09483 | 36905 ft | 527 kts | 91° |
| 2026-04-21 18:24 | 23.75767 | 109.17450 | 36906 ft | 529 kts | 100° |
| 2026-04-21 18:25 | 23.74190 | 109.25363 | 36902 ft | 530 kts | 101° |
| 2026-04-21 18:25 | 23.72601 | 109.33239 | 36906 ft | 530 kts | 101° |
| 2026-04-21 18:26 | 23.71010 | 109.41106 | 36908 ft | 529 kts | 101° |
| 2026-04-21 18:26 | 23.69404 | 109.49030 | 36912 ft | 530 kts | 101° |
| 2026-04-21 18:27 | 23.67802 | 109.56910 | 36919 ft | 530 kts | 101° |
| 2026-04-21 18:27 | 23.66189 | 109.64813 | 36923 ft | 529 kts | 101° |
| 2026-04-21 18:28 | 23.64630 | 109.72375 | 36916 ft | 531 kts | 101° |
| 2026-04-21 18:28 | 23.62988 | 109.80320 | 36921 ft | 529 kts | 101° |
| 2026-04-21 18:29 | 23.61356 | 109.88197 | 36923 ft | 530 kts | 101° |
| 2026-04-21 18:29 | 23.59721 | 109.96066 | 36938 ft | 530 kts | 101° |
| 2026-04-21 18:30 | 23.58081 | 110.03941 | 36946 ft | 530 kts | 101° |
| 2026-04-21 18:30 | 23.56505 | 110.11485 | 36937 ft | 529 kts | 101° |
| 2026-04-21 18:31 | 23.54848 | 110.19399 | 36930 ft | 529 kts | 101° |
| 2026-04-21 18:31 | 23.53202 | 110.27238 | 36914 ft | 529 kts | 101° |
| 2026-04-21 18:32 | 23.51549 | 110.35093 | 36915 ft | 528 kts | 101° |
| 2026-04-21 18:32 | 23.49931 | 110.42967 | 36917 ft | 528 kts | 101° |
| 2026-04-21 18:33 | 23.48345 | 110.50793 | 36923 ft | 527 kts | 101° |
| 2026-04-21 18:33 | 23.46752 | 110.58619 | 36925 ft | 528 kts | 100° |
| 2026-04-21 18:34 | 23.45161 | 110.66405 | 36921 ft | 526 kts | 101° |
| 2026-04-21 18:34 | 23.43563 | 110.74187 | 36917 ft | 527 kts | 101° |
| 2026-04-21 18:35 | 23.42169 | 110.80808 | 36920 ft | 528 kts | 101° |
| 2026-04-21 18:35 | 23.40214 | 110.90054 | 36924 ft | 526 kts | 101° |
| 2026-04-21 18:36 | 23.38552 | 110.97899 | 36929 ft | 527 kts | 101° |
| 2026-04-21 18:36 | 23.36907 | 111.05646 | 36930 ft | 527 kts | 101° |
| 2026-04-21 18:37 | 23.35243 | 111.13462 | 36929 ft | 525 kts | 101° |
| 2026-04-21 18:37 | 23.33627 | 111.21252 | 36937 ft | 525 kts | 101° |
| 2026-04-21 18:38 | 23.32045 | 111.29014 | 36943 ft | 525 kts | 101° |
| 2026-04-21 18:38 | 23.30454 | 111.36792 | 36943 ft | 525 kts | 101° |
| 2026-04-21 18:39 | 23.28942 | 111.44154 | 36940 ft | 526 kts | 101° |
| 2026-04-21 18:39 | 23.27356 | 111.51852 | 36938 ft | 523 kts | 101° |
| 2026-04-21 18:40 | 23.25710 | 111.59702 | 36942 ft | 524 kts | 101° |
| 2026-04-21 18:40 | 23.24343 | 111.66155 | 36940 ft | 523 kts | 102° |
| 2026-04-21 18:41 | 23.22467 | 111.74992 | 36939 ft | 523 kts | 102° |
| 2026-04-21 18:41 | 23.20824 | 111.82712 | 36953 ft | 523 kts | 102° |
| 2026-04-21 18:42 | 23.19215 | 111.90432 | 36969 ft | 524 kts | 101° |
| 2026-04-21 18:42 | 23.17593 | 111.98239 | 36988 ft | 523 kts | 101° |
| 2026-04-21 18:43 | 23.15964 | 112.06055 | 36999 ft | 523 kts | 101° |
| 2026-04-21 18:43 | 23.14349 | 112.13780 | 36980 ft | 522 kts | 101° |
| 2026-04-21 18:44 | 23.12722 | 112.21536 | 36962 ft | 521 kts | 101° |
| 2026-04-21 18:44 | 23.11100 | 112.29253 | 36958 ft | 522 kts | 101° |
| 2026-04-21 18:45 | 23.09468 | 112.36993 | 36954 ft | 521 kts | 101° |
| 2026-04-21 18:45 | 23.07849 | 112.44658 | 36950 ft | 521 kts | 102° |
| 2026-04-21 18:46 | 23.06736 | 112.52409 | 36951 ft | 519 kts | 92° |
| 2026-04-21 18:46 | 23.06212 | 112.60249 | 36945 ft | 518 kts | 92° |
| 2026-04-21 18:47 | 23.05689 | 112.68093 | 36934 ft | 517 kts | 92° |
| 2026-04-21 18:47 | 23.05155 | 112.75993 | 36937 ft | 517 kts | 92° |
| 2026-04-21 18:48 | 23.04619 | 112.83859 | 36935 ft | 516 kts | 93° |
| 2026-04-21 18:48 | 23.04083 | 112.91646 | 36935 ft | 517 kts | 93° |
| 2026-04-21 18:49 | 23.03544 | 112.99405 | 36931 ft | 516 kts | 93° |
| 2026-04-21 18:49 | 23.03088 | 113.05933 | 36933 ft | 517 kts | 92° |
| 2026-04-21 18:50 | 23.01726 | 113.14881 | 36932 ft | 519 kts | 108° |
| 2026-04-21 18:50 | 22.98473 | 113.21861 | 36947 ft | 517 kts | 127° |
| 2026-04-21 18:51 | 22.93655 | 113.27596 | 36956 ft | 515 kts | 137° |
| 2026-04-21 18:51 | 22.88468 | 113.32979 | 36949 ft | 515 kts | 138° |
| 2026-04-21 18:52 | 22.83209 | 113.38395 | 36951 ft | 516 kts | 138° |
| 2026-04-21 18:52 | 22.77983 | 113.43757 | 36953 ft | 514 kts | 138° |
| 2026-04-21 18:53 | 22.72728 | 113.49134 | 36958 ft | 516 kts | 138° |
| 2026-04-21 18:53 | 22.67519 | 113.54455 | 36960 ft | 517 kts | 138° |
| 2026-04-21 18:54 | 22.62287 | 113.59791 | 36964 ft | 514 kts | 138° |
| 2026-04-21 18:54 | 22.57073 | 113.65100 | 36970 ft | 514 kts | 138° |
| 2026-04-21 18:55 | 22.52644 | 113.69606 | 36967 ft | 515 kts | 138° |
| 2026-04-21 18:55 | 22.46551 | 113.75796 | 36969 ft | 513 kts | 138° |
| 2026-04-21 18:56 | 22.41350 | 113.81074 | 36969 ft | 514 kts | 138° |
| 2026-04-21 18:56 | 22.36163 | 113.86333 | 36968 ft | 514 kts | 138° |
| 2026-04-21 18:57 | 22.31213 | 113.91917 | 36970 ft | 513 kts | 133° |
| 2026-04-21 18:57 | 22.26433 | 113.97629 | 36973 ft | 513 kts | 133° |
| 2026-04-21 18:58 | 22.21621 | 114.03337 | 36974 ft | 514 kts | 133° |
| 2026-04-21 18:58 | 22.17161 | 114.09363 | 36975 ft | 514 kts | 128° |
| 2026-04-21 18:59 | 22.12784 | 114.15491 | 36973 ft | 512 kts | 128° |
| 2026-04-21 18:59 | 22.08425 | 114.21542 | 36977 ft | 513 kts | 128° |
| 2026-04-21 19:00 | 22.04042 | 114.27593 | 36981 ft | 512 kts | 129° |
| 2026-04-21 19:00 | 21.99646 | 114.33640 | 36973 ft | 511 kts | 129° |
| 2026-04-21 19:01 | 21.95259 | 114.39658 | 36970 ft | 509 kts | 129° |
| 2026-04-21 19:01 | 21.90894 | 114.45634 | 36964 ft | 508 kts | 129° |
| 2026-04-21 19:02 | 21.86538 | 114.51592 | 36961 ft | 508 kts | 129° |
| 2026-04-21 19:02 | 21.82168 | 114.57557 | 36963 ft | 506 kts | 129° |
| 2026-04-21 19:03 | 21.77791 | 114.63527 | 36966 ft | 503 kts | 129° |
| 2026-04-21 19:03 | 21.75652 | 114.66443 | 36823 ft | 492 kts | 129° |
| 2026-04-21 19:03 | 21.73531 | 114.69331 | 36859 ft | 497 kts | 129° |
| 2026-04-21 19:04 | 21.69169 | 114.75264 | 36859 ft | 506 kts | 129° |
| 2026-04-21 19:04 | 21.64815 | 114.81181 | 36863 ft | 506 kts | 129° |
| 2026-04-21 19:05 | 21.60472 | 114.87078 | 36864 ft | 504 kts | 129° |
| 2026-04-21 19:05 | 21.56110 | 114.92993 | 36865 ft | 503 kts | 129° |
| 2026-04-21 19:06 | 21.51765 | 114.98880 | 36866 ft | 503 kts | 129° |
| 2026-04-21 19:06 | 21.47439 | 115.04733 | 36868 ft | 502 kts | 129° |
| 2026-04-21 19:07 | 21.43069 | 115.10641 | 36869 ft | 502 kts | 129° |
| 2026-04-21 19:07 | 21.38732 | 115.16498 | 36869 ft | 501 kts | 129° |
| 2026-04-21 19:08 | 21.34407 | 115.22332 | 36869 ft | 501 kts | 129° |
| 2026-04-21 19:08 | 21.30077 | 115.28166 | 36870 ft | 500 kts | 129° |
| 2026-04-21 19:09 | 21.25729 | 115.34027 | 36864 ft | 499 kts | 128° |
| 2026-04-21 19:09 | 21.22076 | 115.40355 | 36870 ft | 502 kts | 120° |
| 2026-04-21 19:10 | 21.18633 | 115.46822 | 36871 ft | 500 kts | 121° |
| 2026-04-21 19:10 | 21.15173 | 115.53307 | 36871 ft | 501 kts | 121° |
| 2026-04-21 19:11 | 21.11701 | 115.59799 | 36871 ft | 501 kts | 121° |
| 2026-04-21 19:11 | 21.08239 | 115.66264 | 36868 ft | 501 kts | 121° |
| 2026-04-21 19:12 | 21.05340 | 115.71670 | 36866 ft | 501 kts | 121° |
| 2026-04-21 19:12 | 21.01289 | 115.79214 | 36866 ft | 500 kts | 121° |
| 2026-04-21 19:13 | 20.97823 | 115.85659 | 36867 ft | 500 kts | 121° |
| 2026-04-21 19:13 | 20.94362 | 115.92089 | 36867 ft | 500 kts | 121° |
| 2026-04-21 19:14 | 20.90898 | 115.98515 | 36868 ft | 499 kts | 121° |
| 2026-04-21 19:14 | 20.87430 | 116.04935 | 36864 ft | 500 kts | 122° |
| 2026-04-21 19:15 | 20.83058 | 116.10622 | 36864 ft | 494 kts | 141° |
| 2026-04-21 19:15 | 20.77489 | 116.14849 | 36869 ft | 491 kts | 149° |
| 2026-04-21 19:16 | 20.71706 | 116.18806 | 36871 ft | 491 kts | 149° |
| 2026-04-21 19:16 | 20.65933 | 116.22735 | 36867 ft | 491 kts | 149° |
| 2026-04-21 19:17 | 20.57295 | 116.28593 | 36875 ft | 491 kts | 149° |
| 2026-04-21 19:17 | 20.51508 | 116.32507 | 36878 ft | 491 kts | 150° |
| 2026-04-21 19:18 | 20.45746 | 116.36400 | 36884 ft | 491 kts | 149° |
| 2026-04-21 19:18 | 20.39922 | 116.40331 | 36889 ft | 491 kts | 149° |
| 2026-04-21 19:19 | 20.34141 | 116.44227 | 36891 ft | 492 kts | 149° |
| 2026-04-21 19:19 | 20.28345 | 116.48130 | 36892 ft | 492 kts | 149° |
| 2026-04-21 19:20 | 20.22529 | 116.52043 | 36885 ft | 491 kts | 149° |
| 2026-04-21 19:20 | 20.16696 | 116.55964 | 36874 ft | 491 kts | 149° |
| 2026-04-21 19:21 | 20.10920 | 116.59842 | 36873 ft | 491 kts | 149° |
| 2026-04-21 19:21 | 20.05131 | 116.63726 | 36874 ft | 492 kts | 149° |
| 2026-04-21 19:22 | 19.99507 | 116.67932 | 36860 ft | 495 kts | 139° |
| 2026-04-21 19:22 | 19.94731 | 116.73274 | 36864 ft | 496 kts | 134° |
| 2026-04-21 19:23 | 19.90065 | 116.78693 | 36866 ft | 495 kts | 134° |
| 2026-04-21 19:23 | 19.85384 | 116.84123 | 36869 ft | 494 kts | 134° |
| 2026-04-21 19:24 | 19.80735 | 116.89508 | 36868 ft | 494 kts | 133° |
| 2026-04-21 19:24 | 19.76051 | 116.94929 | 36866 ft | 494 kts | 133° |
| 2026-04-21 19:25 | 19.71409 | 117.00296 | 36868 ft | 495 kts | 133° |
| 2026-04-21 19:25 | 19.66762 | 117.05662 | 36864 ft | 495 kts | 133° |
| 2026-04-21 19:26 | 19.62101 | 117.11041 | 36867 ft | 494 kts | 133° |
| 2026-04-21 19:26 | 19.57461 | 117.16389 | 36867 ft | 494 kts | 133° |
| 2026-04-21 19:27 | 19.52768 | 117.21796 | 36869 ft | 495 kts | 133° |
| 2026-04-21 19:27 | 19.48115 | 117.27149 | 36865 ft | 494 kts | 133° |
| 2026-04-21 19:28 | 19.43456 | 117.32505 | 36868 ft | 495 kts | 133° |
| 2026-04-21 19:28 | 19.38787 | 117.37867 | 36867 ft | 495 kts | 133° |
| 2026-04-21 19:29 | 19.34123 | 117.43220 | 36868 ft | 494 kts | 133° |
| 2026-04-21 19:29 | 19.29436 | 117.48592 | 36869 ft | 495 kts | 133° |
| 2026-04-21 19:30 | 19.24783 | 117.53923 | 36871 ft | 494 kts | 133° |
| 2026-04-21 19:30 | 19.20129 | 117.59248 | 36869 ft | 494 kts | 133° |
| 2026-04-21 19:31 | 19.15440 | 117.64610 | 36871 ft | 495 kts | 133° |
| 2026-04-21 19:31 | 19.10775 | 117.69939 | 36866 ft | 494 kts | 134° |
| 2026-04-21 19:32 | 19.06071 | 117.75308 | 36867 ft | 495 kts | 134° |
| 2026-04-21 19:32 | 19.01406 | 117.80627 | 36866 ft | 494 kts | 133° |
| 2026-04-21 19:33 | 18.96733 | 117.85951 | 36868 ft | 494 kts | 133° |
| 2026-04-21 19:33 | 18.92066 | 117.91264 | 36869 ft | 496 kts | 134° |
| 2026-04-21 19:34 | 18.87351 | 117.96626 | 36874 ft | 495 kts | 134° |
| 2026-04-21 19:34 | 18.82681 | 118.01931 | 36885 ft | 495 kts | 134° |
| 2026-04-21 19:35 | 18.75655 | 118.09905 | 36879 ft | 496 kts | 134° |
| 2026-04-21 19:36 | 18.70945 | 118.15246 | 36873 ft | 494 kts | 134° |
| 2026-04-21 19:36 | 18.66259 | 118.20554 | 36871 ft | 496 kts | 134° |
| 2026-04-21 19:37 | 18.61571 | 118.25859 | 36869 ft | 495 kts | 134° |
| 2026-04-21 19:37 | 18.56882 | 118.31162 | 36870 ft | 495 kts | 134° |
| 2026-04-21 19:38 | 18.52167 | 118.36488 | 36869 ft | 495 kts | 134° |
| 2026-04-21 19:38 | 18.48266 | 118.40893 | 36870 ft | 495 kts | 134° |
| 2026-04-21 19:39 | 18.42771 | 118.47090 | 36870 ft | 496 kts | 134° |
| 2026-04-21 19:39 | 18.38084 | 118.52372 | 36870 ft | 494 kts | 134° |
| 2026-04-21 19:40 | 18.33377 | 118.57671 | 36870 ft | 494 kts | 134° |
| 2026-04-21 19:40 | 18.28669 | 118.62968 | 36871 ft | 494 kts | 134° |
| 2026-04-21 19:41 | 18.23953 | 118.68268 | 36866 ft | 494 kts | 134° |
| 2026-04-21 19:41 | 18.19233 | 118.73568 | 36867 ft | 494 kts | 134° |
| 2026-04-21 19:42 | 18.14538 | 118.78837 | 36867 ft | 495 kts | 134° |
| 2026-04-21 19:42 | 18.09813 | 118.84134 | 36867 ft | 494 kts | 134° |
| 2026-04-21 19:43 | 18.05117 | 118.89394 | 36868 ft | 494 kts | 134° |
| 2026-04-21 19:43 | 18.00350 | 118.94566 | 36867 ft | 492 kts | 140° |
| 2026-04-21 19:44 | 17.94697 | 118.98520 | 36872 ft | 489 kts | 152° |
| 2026-04-21 19:44 | 17.88729 | 119.02003 | 36870 ft | 489 kts | 152° |
| 2026-04-21 19:45 | 17.82692 | 119.05512 | 36869 ft | 489 kts | 152° |
| 2026-04-21 19:45 | 17.76751 | 119.08957 | 36869 ft | 489 kts | 152° |
| 2026-04-21 19:46 | 17.70762 | 119.12425 | 36868 ft | 489 kts | 152° |
| 2026-04-21 19:46 | 17.64814 | 119.15866 | 36870 ft | 489 kts | 152° |
| 2026-04-21 19:47 | 17.58823 | 119.19329 | 36870 ft | 489 kts | 152° |
| 2026-04-21 19:47 | 17.52892 | 119.22755 | 36870 ft | 489 kts | 152° |
| 2026-04-21 19:48 | 17.46908 | 119.26208 | 36869 ft | 489 kts | 152° |
| 2026-04-21 19:48 | 17.40969 | 119.29633 | 36870 ft | 488 kts | 153° |
| 2026-04-21 19:49 | 17.34968 | 119.33092 | 36870 ft | 488 kts | 152° |
| 2026-04-21 19:49 | 17.29000 | 119.36527 | 36870 ft | 489 kts | 152° |
| 2026-04-21 19:50 | 17.24006 | 119.39401 | 36871 ft | 488 kts | 152° |
| 2026-04-21 19:50 | 17.17060 | 119.43394 | 36873 ft | 488 kts | 152° |
| 2026-04-21 19:51 | 17.11118 | 119.46809 | 36874 ft | 487 kts | 152° |
| 2026-04-21 19:51 | 17.05131 | 119.50245 | 36878 ft | 487 kts | 152° |
| 2026-04-21 19:52 | 16.99173 | 119.53663 | 36882 ft | 488 kts | 152° |
| 2026-04-21 19:52 | 16.93234 | 119.57067 | 36887 ft | 488 kts | 152° |
| 2026-04-21 19:53 | 16.87189 | 119.60529 | 36889 ft | 488 kts | 152° |
| 2026-04-21 19:53 | 16.81252 | 119.63928 | 36887 ft | 487 kts | 152° |
| 2026-04-21 19:54 | 16.75236 | 119.67369 | 36879 ft | 487 kts | 153° |
| 2026-04-21 19:54 | 16.69231 | 119.70802 | 36876 ft | 487 kts | 153° |
| 2026-04-21 19:55 | 16.63278 | 119.74201 | 36875 ft | 486 kts | 153° |
| 2026-04-21 19:55 | 16.57354 | 119.77583 | 36874 ft | 486 kts | 153° |
| 2026-04-21 19:56 | 16.51417 | 119.80969 | 36874 ft | 486 kts | 153° |
| 2026-04-21 19:56 | 16.45457 | 119.84365 | 36878 ft | 486 kts | 153° |
| 2026-04-21 19:57 | 16.39513 | 119.87750 | 36879 ft | 487 kts | 153° |
| 2026-04-21 19:57 | 16.33554 | 119.91142 | 36834 ft | 487 kts | 153° |
| 2026-04-21 19:57 | 16.30539 | 119.92857 | 36407 ft | 491 kts | 153° |
| 2026-04-21 19:58 | 16.27572 | 119.94544 | 35893 ft | 490 kts | 153° |
| 2026-04-21 19:58 | 16.24585 | 119.96242 | 35369 ft | 487 kts | 153° |
| 2026-04-21 19:58 | 16.21621 | 119.97926 | 34684 ft | 485 kts | 153° |
| 2026-04-21 19:58 | 16.18636 | 119.99622 | 33676 ft | 489 kts | 152° |
| 2026-04-21 19:59 | 16.15619 | 120.01334 | 32496 ft | 496 kts | 152° |
| 2026-04-21 19:59 | 16.12568 | 120.03066 | 31311 ft | 503 kts | 152° |
| 2026-04-21 19:59 | 16.09469 | 120.04824 | 30388 ft | 504 kts | 152° |
| 2026-04-21 19:59 | 16.06394 | 120.06569 | 29827 ft | 498 kts | 152° |
| 2026-04-21 20:00 | 16.03369 | 120.08285 | 29303 ft | 491 kts | 152° |
| 2026-04-21 20:00 | 16.00403 | 120.09967 | 28685 ft | 487 kts | 152° |
| 2026-04-21 20:00 | 15.97435 | 120.11649 | 28062 ft | 484 kts | 152° |
| 2026-04-21 20:00 | 15.94468 | 120.13329 | 27435 ft | 480 kts | 152° |
| 2026-04-21 20:01 | 15.91535 | 120.14990 | 26757 ft | 478 kts | 153° |
| 2026-04-21 20:01 | 15.88626 | 120.16637 | 26060 ft | 476 kts | 153° |
| 2026-04-21 20:01 | 15.85674 | 120.18308 | 25351 ft | 473 kts | 152° |
| 2026-04-21 20:01 | 15.82765 | 120.19953 | 24648 ft | 471 kts | 152° |
| 2026-04-21 20:02 | 15.80813 | 120.21057 | 24177 ft | 469 kts | 153° |
| 2026-04-21 20:02 | 15.77005 | 120.23209 | 23261 ft | 464 kts | 152° |
| 2026-04-21 20:02 | 15.74202 | 120.24794 | 22597 ft | 461 kts | 153° |
| 2026-04-21 20:02 | 15.71373 | 120.26392 | 21942 ft | 458 kts | 152° |
| 2026-04-21 20:03 | 15.68579 | 120.27970 | 21309 ft | 454 kts | 152° |
| 2026-04-21 20:03 | 15.65827 | 120.29524 | 20678 ft | 451 kts | 152° |
| 2026-04-21 20:03 | 15.63073 | 120.31078 | 20035 ft | 447 kts | 152° |
| 2026-04-21 20:03 | 15.60293 | 120.32647 | 19385 ft | 444 kts | 152° |
| 2026-04-21 20:04 | 15.57592 | 120.34170 | 18743 ft | 441 kts | 152° |
| 2026-04-21 20:04 | 15.55308 | 120.35458 | 18131 ft | 440 kts | 152° |
| 2026-04-21 20:04 | 15.52609 | 120.36979 | 17400 ft | 439 kts | 152° |
| 2026-04-21 20:04 | 15.49902 | 120.38505 | 16730 ft | 436 kts | 151° |
| 2026-04-21 20:05 | 15.47275 | 120.39985 | 16187 ft | 419 kts | 151° |
| 2026-04-21 20:05 | 15.44809 | 120.41374 | 15954 ft | 392 kts | 151° |
| 2026-04-21 20:05 | 15.42488 | 120.42677 | 15923 ft | 363 kts | 153° |
| 2026-04-21 20:05 | 15.40207 | 120.43630 | 15945 ft | 342 kts | 161° |
| 2026-04-21 20:06 | 15.37950 | 120.44379 | 15637 ft | 338 kts | 162° |
| 2026-04-21 20:06 | 15.35702 | 120.45100 | 15306 ft | 334 kts | 162° |
| 2026-04-21 20:06 | 15.33515 | 120.45797 | 15026 ft | 329 kts | 162° |
| 2026-04-21 20:06 | 15.31327 | 120.46493 | 14759 ft | 323 kts | 162° |
| 2026-04-21 20:07 | 15.29184 | 120.47173 | 14509 ft | 320 kts | 162° |
| 2026-04-21 20:07 | 15.27056 | 120.47849 | 14265 ft | 318 kts | 162° |
| 2026-04-21 20:07 | 15.25624 | 120.48304 | 14094 ft | 318 kts | 162° |
| 2026-04-21 20:07 | 15.22816 | 120.49196 | 13770 ft | 315 kts | 162° |
| 2026-04-21 20:08 | 15.20703 | 120.49867 | 13523 ft | 314 kts | 161° |
| 2026-04-21 20:08 | 15.18613 | 120.50530 | 13276 ft | 313 kts | 161° |
| 2026-04-21 20:08 | 15.16529 | 120.51191 | 13027 ft | 312 kts | 161° |
| 2026-04-21 20:08 | 15.14455 | 120.51849 | 12780 ft | 311 kts | 161° |
| 2026-04-21 20:09 | 15.12388 | 120.52505 | 12535 ft | 310 kts | 161° |
| 2026-04-21 20:09 | 15.10328 | 120.53158 | 12295 ft | 308 kts | 161° |
| 2026-04-21 20:09 | 15.08273 | 120.53809 | 12104 ft | 307 kts | 161° |
| 2026-04-21 20:09 | 15.06220 | 120.54460 | 11880 ft | 306 kts | 161° |
| 2026-04-21 20:10 | 15.04199 | 120.55101 | 11648 ft | 304 kts | 161° |
| 2026-04-21 20:10 | 15.02157 | 120.55747 | 11414 ft | 303 kts | 161° |
| 2026-04-21 20:10 | 15.00126 | 120.56391 | 11178 ft | 302 kts | 161° |
| 2026-04-21 20:10 | 14.98119 | 120.57027 | 10935 ft | 300 kts | 161° |
| 2026-04-21 20:11 | 14.96105 | 120.57664 | 10690 ft | 299 kts | 161° |
| 2026-04-21 20:11 | 14.94139 | 120.58287 | 10464 ft | 297 kts | 161° |
| 2026-04-21 20:11 | 14.92156 | 120.58914 | 10233 ft | 293 kts | 160° |
| 2026-04-21 20:11 | 14.90217 | 120.59528 | 9993 ft | 287 kts | 160° |
| 2026-04-21 20:12 | 14.88283 | 120.60139 | 9760 ft | 283 kts | 160° |
| 2026-04-21 20:12 | 14.86384 | 120.60740 | 9523 ft | 281 kts | 160° |
| 2026-04-21 20:12 | 14.85129 | 120.61137 | 9367 ft | 280 kts | 160° |
| 2026-04-21 20:12 | 14.82643 | 120.61923 | 9065 ft | 279 kts | 160° |
| 2026-04-21 20:13 | 14.80779 | 120.62512 | 8843 ft | 278 kts | 160° |
| 2026-04-21 20:13 | 14.78937 | 120.63094 | 8608 ft | 277 kts | 160° |
| 2026-04-21 20:13 | 14.77093 | 120.63676 | 8379 ft | 276 kts | 160° |
| 2026-04-21 20:13 | 14.75242 | 120.64262 | 8154 ft | 274 kts | 160° |
| 2026-04-21 20:14 | 14.73408 | 120.64841 | 7927 ft | 274 kts | 160° |
| 2026-04-21 20:14 | 14.71539 | 120.65430 | 7698 ft | 273 kts | 160° |
| 2026-04-21 20:14 | 14.69721 | 120.66005 | 7486 ft | 272 kts | 160° |
| 2026-04-21 20:14 | 14.67889 | 120.66583 | 7262 ft | 272 kts | 160° |
| 2026-04-21 20:15 | 14.66068 | 120.67158 | 7041 ft | 271 kts | 160° |
| 2026-04-21 20:15 | 14.64269 | 120.67725 | 6819 ft | 269 kts | 160° |
| 2026-04-21 20:15 | 14.62484 | 120.68289 | 6596 ft | 268 kts | 160° |
| 2026-04-21 20:15 | 14.60779 | 120.69056 | 6373 ft | 262 kts | 149° |
| 2026-04-21 20:16 | 14.59206 | 120.69967 | 6176 ft | 257 kts | 147° |
| 2026-04-21 20:16 | 14.57669 | 120.70875 | 5979 ft | 252 kts | 147° |
| 2026-04-21 20:16 | 14.56146 | 120.71771 | 5774 ft | 248 kts | 147° |
| 2026-04-21 20:16 | 14.54642 | 120.72653 | 5587 ft | 243 kts | 147° |
| 2026-04-21 20:17 | 14.53176 | 120.73512 | 5389 ft | 239 kts | 147° |
| 2026-04-21 20:17 | 14.51723 | 120.74329 | 5208 ft | 236 kts | 148° |
| 2026-04-21 20:17 | 14.50281 | 120.75129 | 4981 ft | 234 kts | 148° |
| 2026-04-21 20:17 | 14.48839 | 120.75926 | 4708 ft | 235 kts | 147° |
| 2026-04-21 20:18 | 14.47943 | 120.76583 | 4542 ft | 229 kts | 135° |
| 2026-04-21 20:18 | 14.46452 | 120.78064 | 4189 ft | 219 kts | 128° |
| 2026-04-21 20:18 | 14.45691 | 120.79381 | 3928 ft | 210 kts | 113° |
| 2026-04-21 20:18 | 14.45071 | 120.80763 | 3396 ft | 216 kts | 112° |
| 2026-04-21 20:19 | 14.44440 | 120.82172 | 2853 ft | 218 kts | 112° |
| 2026-04-21 20:19 | 14.43807 | 120.83597 | 2332 ft | 219 kts | 110° |
| 2026-04-21 20:19 | 14.43369 | 120.85083 | 1862 ft | 209 kts | 103° |
| 2026-04-21 20:19 | 14.43088 | 120.86454 | 1706 ft | 185 kts | 89° |
| 2026-04-21 20:20 | 14.43157 | 120.87695 | 1681 ft | 162 kts | 88° |
| 2026-04-21 20:20 | 14.43421 | 120.88738 | 1686 ft | 144 kts | 62° |
| 2026-04-21 20:20 | 14.43941 | 120.89613 | 1691 ft | 138 kts | 61° |
| 2026-04-21 20:20 | 14.44432 | 120.90474 | 1695 ft | 137 kts | 62° |
| 2026-04-21 20:21 | 14.44912 | 120.91332 | 1696 ft | 138 kts | 62° |
| 2026-04-21 20:21 | 14.45394 | 120.92191 | 1694 ft | 138 kts | 62° |
| 2026-04-21 20:21 | 14.45878 | 120.93053 | 1588 ft | 141 kts | 62° |
| 2026-04-21 20:21 | 14.46371 | 120.93917 | 1402 ft | 140 kts | 60° |
| 2026-04-21 20:22 | 14.46889 | 120.94781 | 1223 ft | 140 kts | 62° |
| 2026-04-21 20:22 | 14.47868 | 120.96545 | 922 ft | 141 kts | 62° |
| 2026-04-21 20:22 | 14.48363 | 120.97427 | 712 ft | 142 kts | 62° |
| 2026-04-21 20:23 | 14.48846 | 120.98308 | 538 ft | 142 kts | 62° |
| 2026-04-21 20:23 | 14.49345 | 120.99204 | 323 ft | 142 kts | 62° |
| 2026-04-21 20:23 | 14.49840 | 121.00110 | 125 ft | 145 kts | 61° |
| 2026-04-21 20:23 | 14.50303 | 121.00946 | 88 ft | 116 kts | 60° |
| 2026-04-21 20:24 | 14.50640 | 121.01554 | 88 ft | 80 kts | 60° |
| 2026-04-21 20:24 | 14.50855 | 121.01936 | 88 ft | 41 kts | 60° |
| 2026-04-21 20:24 | 14.50981 | 121.02148 | 88 ft | 31 kts | 50° |
| 2026-04-21 20:24 | 14.51098 | 121.02264 | 88 ft | 12 kts | 40° |
| 2026-04-21 20:25 | 14.51172 | 121.02293 | 88 ft | 9 kts | 338° |
| 2026-04-21 20:25 | 14.51172 | 121.02228 | 88 ft | 10 kts | 243° |
| 2026-04-21 20:25 | 14.51137 | 121.02165 | 88 ft | 10 kts | 238° |
| 2026-04-21 20:25 | 14.51100 | 121.02098 | 88 ft | 11 kts | 241° |
| 2026-04-21 20:26 | 14.51068 | 121.02016 | 88 ft | 13 kts | 275° |
| 2026-04-21 20:26 | 14.51125 | 121.01936 | 88 ft | 14 kts | 311° |
| 2026-04-21 20:26 | 14.51201 | 121.01853 | 88 ft | 16 kts | 315° |
| 2026-04-21 20:26 | 14.51289 | 121.01762 | 88 ft | 18 kts | 315° |
| 2026-04-21 20:27 | 14.51384 | 121.01665 | 88 ft | 20 kts | 314° |
| 2026-04-21 20:27 | 14.51486 | 121.01559 | 88 ft | 21 kts | 314° |
| 2026-04-21 20:27 | 14.51576 | 121.01463 | 88 ft | 16 kts | 316° |
| 2026-04-21 20:27 | 14.51633 | 121.01420 | 88 ft | 7 kts | 0° |
| 2026-04-21 20:28 | 14.51678 | 121.01444 | 88 ft | 6 kts | 43° |
| 2026-04-21 20:28 | 14.51699 | 121.01464 | 88 ft | 0 kts | 43° |
| 2026-04-21 20:28 | 14.51700 | 121.01466 | 88 ft | 0 kts | 43° |